<?xml version="1.0" encoding="utf-8"?>
<gpx xmlns:xsi="http://www.w3.org/2001/XMLSchema-instance" xmlns:xsd="http://www.w3.org/2001/XMLSchema" version="1.1" creator="Shapelink.com" xmlns="http://www.topografix.com/GPX/1/1" xmlns:gpxtpx="http://www.garmin.com/xmlschemas/TrackPointExtension/v1">
  <metadata>
    <name>Löpning 25.00 km, 2019-05-30</name>
    <desc></desc>
    <author><name>Marian Moron</name></author> 
    <time>2019-05-30T11:17:40Z</time>
  </metadata>
  <trk>
    <name>Löpning 25.00 km, 2019-05-30</name>
    <trkseg>
      <trkpt lat="51.228776291641" lon="4.448806915926">
        <ele>0</ele>
        <time>2019-05-30T11:17:40Z</time>
      </trkpt>
      <trkpt lat="51.228815267476" lon="4.448744973685">
        <ele>0</ele>
        <time>2019-05-30T11:18:07Z</time>
      </trkpt>
      <trkpt lat="51.228940241605" lon="4.448526373733">
        <ele>0</ele>
        <time>2019-05-30T11:18:19Z</time>
      </trkpt>
      <trkpt lat="51.228933619904" lon="4.448498462006">
        <ele>0</ele>
        <time>2019-05-30T11:18:20Z</time>
      </trkpt>
      <trkpt lat="51.228902439236" lon="4.448401567242">
        <ele>0</ele>
        <time>2019-05-30T11:18:24Z</time>
      </trkpt>
      <trkpt lat="51.228800431513" lon="4.448158995056">
        <ele>0</ele>
        <time>2019-05-30T11:18:33Z</time>
      </trkpt>
      <trkpt lat="51.228666069656" lon="4.447950956298">
        <ele>0</ele>
        <time>2019-05-30T11:18:41Z</time>
      </trkpt>
      <trkpt lat="51.228558613698" lon="4.447702600601">
        <ele>0</ele>
        <time>2019-05-30T11:18:50Z</time>
      </trkpt>
      <trkpt lat="51.228440848003" lon="4.447451897972">
        <ele>0</ele>
        <time>2019-05-30T11:18:59Z</time>
      </trkpt>
      <trkpt lat="51.228413523009" lon="4.447354584113">
        <ele>0</ele>
        <time>2019-05-30T11:19:02Z</time>
      </trkpt>
      <trkpt lat="51.228365913817" lon="4.447335305743">
        <ele>0</ele>
        <time>2019-05-30T11:19:04Z</time>
      </trkpt>
      <trkpt lat="51.22816784952" lon="4.447446952651">
        <ele>0</ele>
        <time>2019-05-30T11:19:12Z</time>
      </trkpt>
      <trkpt lat="51.227982022797" lon="4.447599838507">
        <ele>0</ele>
        <time>2019-05-30T11:19:20Z</time>
      </trkpt>
      <trkpt lat="51.227803739784" lon="4.447762447367">
        <ele>0</ele>
        <time>2019-05-30T11:19:28Z</time>
      </trkpt>
      <trkpt lat="51.227638616354" lon="4.447947519719">
        <ele>1.6</ele>
        <time>2019-05-30T11:19:36Z</time>
      </trkpt>
      <trkpt lat="51.227492855113" lon="4.448127227655">
        <ele>2.4</ele>
        <time>2019-05-30T11:19:44Z</time>
      </trkpt>
      <trkpt lat="51.227346758596" lon="4.448346162883">
        <ele>2.8</ele>
        <time>2019-05-30T11:19:52Z</time>
      </trkpt>
      <trkpt lat="51.227211558549" lon="4.448545652103">
        <ele>3.4</ele>
        <time>2019-05-30T11:19:59Z</time>
      </trkpt>
      <trkpt lat="51.227091362103" lon="4.448777327819">
        <ele>5.6</ele>
        <time>2019-05-30T11:20:06Z</time>
      </trkpt>
      <trkpt lat="51.227067138412" lon="4.448822673898">
        <ele>6.4</ele>
        <time>2019-05-30T11:20:08Z</time>
      </trkpt>
      <trkpt lat="51.22703545483" lon="4.448838683327">
        <ele>7.4</ele>
        <time>2019-05-30T11:20:11Z</time>
      </trkpt>
      <trkpt lat="51.226850466297" lon="4.44889039965">
        <ele>8</ele>
        <time>2019-05-30T11:20:20Z</time>
      </trkpt>
      <trkpt lat="51.226712416404" lon="4.449084775911">
        <ele>7.6</ele>
        <time>2019-05-30T11:20:28Z</time>
      </trkpt>
      <trkpt lat="51.226642846634" lon="4.449193908249">
        <ele>7.2</ele>
        <time>2019-05-30T11:20:32Z</time>
      </trkpt>
      <trkpt lat="51.226593225786" lon="4.44918879529">
        <ele>6.8</ele>
        <time>2019-05-30T11:20:34Z</time>
      </trkpt>
      <trkpt lat="51.226436735713" lon="4.449003303843">
        <ele>5.6</ele>
        <time>2019-05-30T11:20:41Z</time>
      </trkpt>
      <trkpt lat="51.226283849857" lon="4.448814459636">
        <ele>4.4</ele>
        <time>2019-05-30T11:20:48Z</time>
      </trkpt>
      <trkpt lat="51.226243532918" lon="4.448786799366">
        <ele>3.8</ele>
        <time>2019-05-30T11:20:50Z</time>
      </trkpt>
      <trkpt lat="51.226211346422" lon="4.448817225663">
        <ele>3.2</ele>
        <time>2019-05-30T11:20:52Z</time>
      </trkpt>
      <trkpt lat="51.2261243423" lon="4.449114866932">
        <ele>3</ele>
        <time>2019-05-30T11:20:59Z</time>
      </trkpt>
      <trkpt lat="51.226036751445" lon="4.449398091333">
        <ele>6.6</ele>
        <time>2019-05-30T11:21:06Z</time>
      </trkpt>
      <trkpt lat="51.225890235833" lon="4.449583918056">
        <ele>7.4</ele>
        <time>2019-05-30T11:21:13Z</time>
      </trkpt>
      <trkpt lat="51.225696278667" lon="4.449677627698">
        <ele>5.8</ele>
        <time>2019-05-30T11:21:20Z</time>
      </trkpt>
      <trkpt lat="51.225499304017" lon="4.449703024855">
        <ele>4.4</ele>
        <time>2019-05-30T11:21:27Z</time>
      </trkpt>
      <trkpt lat="51.225312555285" lon="4.449728086736">
        <ele>2.6</ele>
        <time>2019-05-30T11:21:34Z</time>
      </trkpt>
      <trkpt lat="51.225137289756" lon="4.449824059491">
        <ele>1.6</ele>
        <time>2019-05-30T11:21:41Z</time>
      </trkpt>
      <trkpt lat="51.224972836878" lon="4.450000833762">
        <ele>0.8</ele>
        <time>2019-05-30T11:21:48Z</time>
      </trkpt>
      <trkpt lat="51.224812658769" lon="4.450213398746">
        <ele>0.4</ele>
        <time>2019-05-30T11:21:55Z</time>
      </trkpt>
      <trkpt lat="51.224677291084" lon="4.450446499385">
        <ele>0</ele>
        <time>2019-05-30T11:22:02Z</time>
      </trkpt>
      <trkpt lat="51.224544857064" lon="4.450682366051">
        <ele>0</ele>
        <time>2019-05-30T11:22:09Z</time>
      </trkpt>
      <trkpt lat="51.224406388076" lon="4.450910018455">
        <ele>0</ele>
        <time>2019-05-30T11:22:16Z</time>
      </trkpt>
      <trkpt lat="51.224266577984" lon="4.451112357521">
        <ele>0.2</ele>
        <time>2019-05-30T11:22:23Z</time>
      </trkpt>
      <trkpt lat="51.224104723495" lon="4.451312936388">
        <ele>1.4</ele>
        <time>2019-05-30T11:22:30Z</time>
      </trkpt>
      <trkpt lat="51.223914202908" lon="4.451409747333">
        <ele>2.2</ele>
        <time>2019-05-30T11:22:37Z</time>
      </trkpt>
      <trkpt lat="51.223709181634" lon="4.45136808929">
        <ele>1</ele>
        <time>2019-05-30T11:22:44Z</time>
      </trkpt>
      <trkpt lat="51.223507932215" lon="4.451308996895">
        <ele>0</ele>
        <time>2019-05-30T11:22:51Z</time>
      </trkpt>
      <trkpt lat="51.22332143494" lon="4.451245462093">
        <ele>0</ele>
        <time>2019-05-30T11:22:58Z</time>
      </trkpt>
      <trkpt lat="51.223146420868" lon="4.451177317246">
        <ele>0</ele>
        <time>2019-05-30T11:23:04Z</time>
      </trkpt>
      <trkpt lat="51.222951206417" lon="4.451103388888">
        <ele>0</ele>
        <time>2019-05-30T11:23:11Z</time>
      </trkpt>
      <trkpt lat="51.222765379694" lon="4.451039183534">
        <ele>1.6</ele>
        <time>2019-05-30T11:23:18Z</time>
      </trkpt>
      <trkpt lat="51.222569913786" lon="4.451086541269">
        <ele>1.4</ele>
        <time>2019-05-30T11:23:26Z</time>
      </trkpt>
      <trkpt lat="51.222387858918" lon="4.451105232906">
        <ele>0</ele>
        <time>2019-05-30T11:23:34Z</time>
      </trkpt>
      <trkpt lat="51.222205887869" lon="4.451171030821">
        <ele>0</ele>
        <time>2019-05-30T11:23:42Z</time>
      </trkpt>
      <trkpt lat="51.222025509381" lon="4.451302626651">
        <ele>0</ele>
        <time>2019-05-30T11:23:50Z</time>
      </trkpt>
      <trkpt lat="51.221745302464" lon="4.451517538567">
        <ele>0</ele>
        <time>2019-05-30T11:24:03Z</time>
      </trkpt>
      <trkpt lat="51.221548914547" lon="4.451573362021">
        <ele>0</ele>
        <time>2019-05-30T11:24:12Z</time>
      </trkpt>
      <trkpt lat="51.221356298485" lon="4.451647793293">
        <ele>0</ele>
        <time>2019-05-30T11:24:21Z</time>
      </trkpt>
      <trkpt lat="51.221172986332" lon="4.451698084693">
        <ele>0</ele>
        <time>2019-05-30T11:24:28Z</time>
      </trkpt>
      <trkpt lat="51.220962433004" lon="4.451717279244">
        <ele>0</ele>
        <time>2019-05-30T11:24:35Z</time>
      </trkpt>
      <trkpt lat="51.220769314028" lon="4.451738317813">
        <ele>0</ele>
        <time>2019-05-30T11:24:42Z</time>
      </trkpt>
      <trkpt lat="51.220576865604" lon="4.451789950317">
        <ele>0</ele>
        <time>2019-05-30T11:24:50Z</time>
      </trkpt>
      <trkpt lat="51.220383495171" lon="4.451834290568">
        <ele>0</ele>
        <time>2019-05-30T11:24:57Z</time>
      </trkpt>
      <trkpt lat="51.220304034759" lon="4.451863375761">
        <ele>0</ele>
        <time>2019-05-30T11:25:00Z</time>
      </trkpt>
      <trkpt lat="51.22013631294" lon="4.451977872515">
        <ele>3.4</ele>
        <time>2019-05-30T11:25:41Z</time>
      </trkpt>
      <trkpt lat="51.219936907539" lon="4.451998827265">
        <ele>0</ele>
        <time>2019-05-30T11:25:52Z</time>
      </trkpt>
      <trkpt lat="51.219737250681" lon="4.452022631861">
        <ele>0</ele>
        <time>2019-05-30T11:25:59Z</time>
      </trkpt>
      <trkpt lat="51.219554776718" lon="4.452025649345">
        <ele>1.6</ele>
        <time>2019-05-30T11:26:05Z</time>
      </trkpt>
      <trkpt lat="51.219364926683" lon="4.452047777561">
        <ele>0</ele>
        <time>2019-05-30T11:26:12Z</time>
      </trkpt>
      <trkpt lat="51.219188990602" lon="4.452117263512">
        <ele>0.4</ele>
        <time>2019-05-30T11:26:18Z</time>
      </trkpt>
      <trkpt lat="51.219048677596" lon="4.452348939228">
        <ele>2.2</ele>
        <time>2019-05-30T11:26:25Z</time>
      </trkpt>
      <trkpt lat="51.219028141941" lon="4.452427142355">
        <ele>2.6</ele>
        <time>2019-05-30T11:26:26Z</time>
      </trkpt>
      <trkpt lat="51.2191003101" lon="4.45271003148">
        <ele>0.4</ele>
        <time>2019-05-30T11:26:34Z</time>
      </trkpt>
      <trkpt lat="51.21922017127" lon="4.452951011105">
        <ele>0</ele>
        <time>2019-05-30T11:26:41Z</time>
      </trkpt>
      <trkpt lat="51.219325280296" lon="4.453211604376">
        <ele>0</ele>
        <time>2019-05-30T11:26:49Z</time>
      </trkpt>
      <trkpt lat="51.219425611639" lon="4.453489631999">
        <ele>2.6</ele>
        <time>2019-05-30T11:26:58Z</time>
      </trkpt>
      <trkpt lat="51.219510520286" lon="4.453702364621">
        <ele>4.8</ele>
        <time>2019-05-30T11:27:05Z</time>
      </trkpt>
      <trkpt lat="51.219500629644" lon="4.453728264692">
        <ele>5</ele>
        <time>2019-05-30T11:27:08Z</time>
      </trkpt>
      <trkpt lat="51.219340283897" lon="4.453914342872">
        <ele>4.8</ele>
        <time>2019-05-30T11:27:17Z</time>
      </trkpt>
      <trkpt lat="51.21918832005" lon="4.454094805179">
        <ele>5.6</ele>
        <time>2019-05-30T11:27:24Z</time>
      </trkpt>
      <trkpt lat="51.219036523841" lon="4.454254648012">
        <ele>4.8</ele>
        <time>2019-05-30T11:27:31Z</time>
      </trkpt>
      <trkpt lat="51.218886739288" lon="4.454438965993">
        <ele>2</ele>
        <time>2019-05-30T11:27:39Z</time>
      </trkpt>
      <trkpt lat="51.218728405197" lon="4.454579698094">
        <ele>0.2</ele>
        <time>2019-05-30T11:27:46Z</time>
      </trkpt>
      <trkpt lat="51.218576022255" lon="4.45474683318">
        <ele>2.6</ele>
        <time>2019-05-30T11:27:53Z</time>
      </trkpt>
      <trkpt lat="51.218420454191" lon="4.454915057913">
        <ele>3.8</ele>
        <time>2019-05-30T11:28:00Z</time>
      </trkpt>
      <trkpt lat="51.218260527539" lon="4.455060902973">
        <ele>6.2</ele>
        <time>2019-05-30T11:28:08Z</time>
      </trkpt>
      <trkpt lat="51.218186012448" lon="4.455338343863">
        <ele>4.8</ele>
        <time>2019-05-30T11:28:17Z</time>
      </trkpt>
      <trkpt lat="51.218172349951" lon="4.455625759214">
        <ele>8.8</ele>
        <time>2019-05-30T11:28:25Z</time>
      </trkpt>
      <trkpt lat="51.218175618892" lon="4.45593957755">
        <ele>10.6</ele>
        <time>2019-05-30T11:28:33Z</time>
      </trkpt>
      <trkpt lat="51.218176457082" lon="4.456236129172">
        <ele>11</ele>
        <time>2019-05-30T11:28:40Z</time>
      </trkpt>
      <trkpt lat="51.218171260304" lon="4.45655899996">
        <ele>9.6</ele>
        <time>2019-05-30T11:28:48Z</time>
      </trkpt>
      <trkpt lat="51.218164806241" lon="4.456867705337">
        <ele>11.2</ele>
        <time>2019-05-30T11:28:55Z</time>
      </trkpt>
      <trkpt lat="51.218141756016" lon="4.457178925284">
        <ele>11.6</ele>
        <time>2019-05-30T11:29:03Z</time>
      </trkpt>
      <trkpt lat="51.218123232017" lon="4.457495761104">
        <ele>8</ele>
        <time>2019-05-30T11:29:12Z</time>
      </trkpt>
      <trkpt lat="51.21810621676" lon="4.457805556128">
        <ele>5</ele>
        <time>2019-05-30T11:29:20Z</time>
      </trkpt>
      <trkpt lat="51.218078640309" lon="4.45812976802">
        <ele>4</ele>
        <time>2019-05-30T11:29:28Z</time>
      </trkpt>
      <trkpt lat="51.218050477125" lon="4.458450459514">
        <ele>3.6</ele>
        <time>2019-05-30T11:29:36Z</time>
      </trkpt>
      <trkpt lat="51.218028600366" lon="4.458749441887">
        <ele>2.4</ele>
        <time>2019-05-30T11:29:44Z</time>
      </trkpt>
      <trkpt lat="51.218001694467" lon="4.459036941057">
        <ele>1</ele>
        <time>2019-05-30T11:29:52Z</time>
      </trkpt>
      <trkpt lat="51.217994234576" lon="4.459362158777">
        <ele>0</ele>
        <time>2019-05-30T11:30:00Z</time>
      </trkpt>
      <trkpt lat="51.217968166867" lon="4.459658458942">
        <ele>0</ele>
        <time>2019-05-30T11:30:07Z</time>
      </trkpt>
      <trkpt lat="51.217952660352" lon="4.459984011938">
        <ele>0.2</ele>
        <time>2019-05-30T11:30:14Z</time>
      </trkpt>
      <trkpt lat="51.21793019686" lon="4.460291962944">
        <ele>1.2</ele>
        <time>2019-05-30T11:30:21Z</time>
      </trkpt>
      <trkpt lat="51.217901782219" lon="4.460580132666">
        <ele>1.8</ele>
        <time>2019-05-30T11:30:28Z</time>
      </trkpt>
      <trkpt lat="51.217917875467" lon="4.461152951712">
        <ele>3</ele>
        <time>2019-05-30T11:30:41Z</time>
      </trkpt>
      <trkpt lat="51.217926425005" lon="4.461442043443">
        <ele>3.8</ele>
        <time>2019-05-30T11:30:47Z</time>
      </trkpt>
      <trkpt lat="51.217908068644" lon="4.46175158701">
        <ele>5.2</ele>
        <time>2019-05-30T11:30:54Z</time>
      </trkpt>
      <trkpt lat="51.217894741423" lon="4.462067333183">
        <ele>6.8</ele>
        <time>2019-05-30T11:31:01Z</time>
      </trkpt>
      <trkpt lat="51.217879570184" lon="4.462375032732">
        <ele>7.4</ele>
        <time>2019-05-30T11:31:08Z</time>
      </trkpt>
      <trkpt lat="51.217855430312" lon="4.462660520246">
        <ele>7.8</ele>
        <time>2019-05-30T11:31:15Z</time>
      </trkpt>
      <trkpt lat="51.217838917969" lon="4.462961598094">
        <ele>6.4</ele>
        <time>2019-05-30T11:31:23Z</time>
      </trkpt>
      <trkpt lat="51.217826680395" lon="4.46327374005">
        <ele>7</ele>
        <time>2019-05-30T11:31:31Z</time>
      </trkpt>
      <trkpt lat="51.217805558007" lon="4.463568196197">
        <ele>4.4</ele>
        <time>2019-05-30T11:31:39Z</time>
      </trkpt>
      <trkpt lat="51.217788458931" lon="4.463866256561">
        <ele>3.6</ele>
        <time>2019-05-30T11:31:47Z</time>
      </trkpt>
      <trkpt lat="51.217795499727" lon="4.464155180654">
        <ele>0</ele>
        <time>2019-05-30T11:31:55Z</time>
      </trkpt>
      <trkpt lat="51.217781166678" lon="4.464445864946">
        <ele>0</ele>
        <time>2019-05-30T11:32:02Z</time>
      </trkpt>
      <trkpt lat="51.217767588" lon="4.464747697165">
        <ele>0</ele>
        <time>2019-05-30T11:32:10Z</time>
      </trkpt>
      <trkpt lat="51.217769432018" lon="4.465066544641">
        <ele>0</ele>
        <time>2019-05-30T11:32:19Z</time>
      </trkpt>
      <trkpt lat="51.21776591162" lon="4.465385811212">
        <ele>0</ele>
        <time>2019-05-30T11:32:27Z</time>
      </trkpt>
      <trkpt lat="51.217735820599" lon="4.465668616518">
        <ele>0</ele>
        <time>2019-05-30T11:32:34Z</time>
      </trkpt>
      <trkpt lat="51.217702712094" lon="4.465959384629">
        <ele>0</ele>
        <time>2019-05-30T11:32:41Z</time>
      </trkpt>
      <trkpt lat="51.217678153127" lon="4.466258283183">
        <ele>0</ele>
        <time>2019-05-30T11:32:48Z</time>
      </trkpt>
      <trkpt lat="51.217667927209" lon="4.466579896686">
        <ele>0</ele>
        <time>2019-05-30T11:32:56Z</time>
      </trkpt>
      <trkpt lat="51.217644206432" lon="4.466886171312">
        <ele>1</ele>
        <time>2019-05-30T11:33:03Z</time>
      </trkpt>
      <trkpt lat="51.217626352985" lon="4.467208539186">
        <ele>1.6</ele>
        <time>2019-05-30T11:33:11Z</time>
      </trkpt>
      <trkpt lat="51.217605565873" lon="4.467496457451">
        <ele>3</ele>
        <time>2019-05-30T11:33:18Z</time>
      </trkpt>
      <trkpt lat="51.217620569474" lon="4.467818909144">
        <ele>1.2</ele>
        <time>2019-05-30T11:33:26Z</time>
      </trkpt>
      <trkpt lat="51.217626855899" lon="4.46810506721">
        <ele>3.4</ele>
        <time>2019-05-30T11:33:33Z</time>
      </trkpt>
      <trkpt lat="51.217598860353" lon="4.468394326579">
        <ele>2.6</ele>
        <time>2019-05-30T11:33:40Z</time>
      </trkpt>
      <trkpt lat="51.217576145404" lon="4.468684759414">
        <ele>2.6</ele>
        <time>2019-05-30T11:33:47Z</time>
      </trkpt>
      <trkpt lat="51.217499786295" lon="4.468972510041">
        <ele>3.4</ele>
        <time>2019-05-30T11:33:55Z</time>
      </trkpt>
      <trkpt lat="51.217336842159" lon="4.469160432239">
        <ele>5.6</ele>
        <time>2019-05-30T11:34:03Z</time>
      </trkpt>
      <trkpt lat="51.217172221643" lon="4.469299152684">
        <ele>5.2</ele>
        <time>2019-05-30T11:34:12Z</time>
      </trkpt>
      <trkpt lat="51.217022688547" lon="4.469497803714">
        <ele>6.2</ele>
        <time>2019-05-30T11:34:21Z</time>
      </trkpt>
      <trkpt lat="51.216866701388" lon="4.469655131977">
        <ele>7.4</ele>
        <time>2019-05-30T11:34:30Z</time>
      </trkpt>
      <trkpt lat="51.216702835243" lon="4.46981665119">
        <ele>2.8</ele>
        <time>2019-05-30T11:34:37Z</time>
      </trkpt>
      <trkpt lat="51.216524887506" lon="4.469972973625">
        <ele>0</ele>
        <time>2019-05-30T11:34:44Z</time>
      </trkpt>
      <trkpt lat="51.2163594288" lon="4.470118148133">
        <ele>0</ele>
        <time>2019-05-30T11:34:51Z</time>
      </trkpt>
      <trkpt lat="51.21619514356" lon="4.470275644034">
        <ele>0</ele>
        <time>2019-05-30T11:34:58Z</time>
      </trkpt>
      <trkpt lat="51.216042928256" lon="4.470455519608">
        <ele>0</ele>
        <time>2019-05-30T11:35:06Z</time>
      </trkpt>
      <trkpt lat="51.21588501326" lon="4.47065819395">
        <ele>0</ele>
        <time>2019-05-30T11:35:15Z</time>
      </trkpt>
      <trkpt lat="51.215835392412" lon="4.470823149742">
        <ele>0</ele>
        <time>2019-05-30T11:35:21Z</time>
      </trkpt>
      <trkpt lat="51.21577856313" lon="4.471125652513">
        <ele>0</ele>
        <time>2019-05-30T11:35:28Z</time>
      </trkpt>
      <trkpt lat="51.215670604258" lon="4.471359591342">
        <ele>0</ele>
        <time>2019-05-30T11:35:35Z</time>
      </trkpt>
      <trkpt lat="51.215500200231" lon="4.471510046447">
        <ele>0</ele>
        <time>2019-05-30T11:35:43Z</time>
      </trkpt>
      <trkpt lat="51.2153116913" lon="4.471531839387">
        <ele>0</ele>
        <time>2019-05-30T11:35:50Z</time>
      </trkpt>
      <trkpt lat="51.215120416342" lon="4.471509459714">
        <ele>0</ele>
        <time>2019-05-30T11:35:57Z</time>
      </trkpt>
      <trkpt lat="51.214940289311" lon="4.4716346853">
        <ele>0</ele>
        <time>2019-05-30T11:36:05Z</time>
      </trkpt>
      <trkpt lat="51.214772483673" lon="4.471821098756">
        <ele>0</ele>
        <time>2019-05-30T11:36:13Z</time>
      </trkpt>
      <trkpt lat="51.214623956405" lon="4.471985551634">
        <ele>0</ele>
        <time>2019-05-30T11:36:20Z</time>
      </trkpt>
      <trkpt lat="51.214501413027" lon="4.472234410245">
        <ele>0</ele>
        <time>2019-05-30T11:36:29Z</time>
      </trkpt>
      <trkpt lat="51.21448523596" lon="4.472635316522">
        <ele>0</ele>
        <time>2019-05-30T11:36:39Z</time>
      </trkpt>
      <trkpt lat="51.214544160717" lon="4.472919546751">
        <ele>1.2</ele>
        <time>2019-05-30T11:36:46Z</time>
      </trkpt>
      <trkpt lat="51.214581795448" lon="4.473243004272">
        <ele>3.4</ele>
        <time>2019-05-30T11:36:53Z</time>
      </trkpt>
      <trkpt lat="51.214527816012" lon="4.473546680509">
        <ele>4.2</ele>
        <time>2019-05-30T11:37:00Z</time>
      </trkpt>
      <trkpt lat="51.214393454155" lon="4.473797299319">
        <ele>4.2</ele>
        <time>2019-05-30T11:37:07Z</time>
      </trkpt>
      <trkpt lat="51.214221457567" lon="4.473907688942">
        <ele>3</ele>
        <time>2019-05-30T11:37:14Z</time>
      </trkpt>
      <trkpt lat="51.214030517885" lon="4.473840549923">
        <ele>3.6</ele>
        <time>2019-05-30T11:37:22Z</time>
      </trkpt>
      <trkpt lat="51.214020543424" lon="4.473814566033">
        <ele>3.2</ele>
        <time>2019-05-30T11:37:23Z</time>
      </trkpt>
      <trkpt lat="51.214018699406" lon="4.473755473638">
        <ele>2.2</ele>
        <time>2019-05-30T11:37:25Z</time>
      </trkpt>
      <trkpt lat="51.213997577018" lon="4.473659081788">
        <ele>0</ele>
        <time>2019-05-30T11:37:29Z</time>
      </trkpt>
      <trkpt lat="51.213819880738" lon="4.473727058997">
        <ele>0</ele>
        <time>2019-05-30T11:37:40Z</time>
      </trkpt>
      <trkpt lat="51.213737989575" lon="4.4737385422">
        <ele>0</ele>
        <time>2019-05-30T11:37:45Z</time>
      </trkpt>
      <trkpt lat="51.213693816962" lon="4.473735357078">
        <ele>0</ele>
        <time>2019-05-30T11:37:48Z</time>
      </trkpt>
      <trkpt lat="51.213512265008" lon="4.473826887426">
        <ele>0</ele>
        <time>2019-05-30T11:37:57Z</time>
      </trkpt>
      <trkpt lat="51.213325264819" lon="4.473908610951">
        <ele>0</ele>
        <time>2019-05-30T11:38:04Z</time>
      </trkpt>
      <trkpt lat="51.213243457475" lon="4.474182363805">
        <ele>0</ele>
        <time>2019-05-30T11:38:11Z</time>
      </trkpt>
      <trkpt lat="51.213299867662" lon="4.474488219336">
        <ele>0</ele>
        <time>2019-05-30T11:38:19Z</time>
      </trkpt>
      <trkpt lat="51.213361139351" lon="4.474781166741">
        <ele>0</ele>
        <time>2019-05-30T11:38:27Z</time>
      </trkpt>
      <trkpt lat="51.213390895096" lon="4.475070761386">
        <ele>0</ele>
        <time>2019-05-30T11:38:35Z</time>
      </trkpt>
      <trkpt lat="51.213436911727" lon="4.475358428194">
        <ele>0</ele>
        <time>2019-05-30T11:38:43Z</time>
      </trkpt>
      <trkpt lat="51.213480916702" lon="4.475664283725">
        <ele>0</ele>
        <time>2019-05-30T11:38:51Z</time>
      </trkpt>
      <trkpt lat="51.213527520066" lon="4.475974078749">
        <ele>1.2</ele>
        <time>2019-05-30T11:38:59Z</time>
      </trkpt>
      <trkpt lat="51.213578398199" lon="4.476287813266">
        <ele>0</ele>
        <time>2019-05-30T11:39:07Z</time>
      </trkpt>
      <trkpt lat="51.213631623264" lon="4.47656491888">
        <ele>0</ele>
        <time>2019-05-30T11:39:14Z</time>
      </trkpt>
      <trkpt lat="51.213663977398" lon="4.476856525181">
        <ele>0.4</ele>
        <time>2019-05-30T11:39:21Z</time>
      </trkpt>
      <trkpt lat="51.213729942951" lon="4.477125416533">
        <ele>4.4</ele>
        <time>2019-05-30T11:39:28Z</time>
      </trkpt>
      <trkpt lat="51.213837650366" lon="4.477373436954">
        <ele>3</ele>
        <time>2019-05-30T11:39:36Z</time>
      </trkpt>
      <trkpt lat="51.213966647807" lon="4.477580637522">
        <ele>0</ele>
        <time>2019-05-30T11:39:44Z</time>
      </trkpt>
      <trkpt lat="51.214129675762" lon="4.477752550291">
        <ele>0</ele>
        <time>2019-05-30T11:39:52Z</time>
      </trkpt>
      <trkpt lat="51.214276023736" lon="4.477968719492">
        <ele>0</ele>
        <time>2019-05-30T11:40:00Z</time>
      </trkpt>
      <trkpt lat="51.214433854913" lon="4.478164855952">
        <ele>0</ele>
        <time>2019-05-30T11:40:08Z</time>
      </trkpt>
      <trkpt lat="51.214589506796" lon="4.478342384594">
        <ele>0</ele>
        <time>2019-05-30T11:40:16Z</time>
      </trkpt>
      <trkpt lat="51.214746583602" lon="4.478491247138">
        <ele>0</ele>
        <time>2019-05-30T11:40:23Z</time>
      </trkpt>
      <trkpt lat="51.214907348444" lon="4.478652514894">
        <ele>0</ele>
        <time>2019-05-30T11:40:31Z</time>
      </trkpt>
      <trkpt lat="51.215081524326" lon="4.478791235339">
        <ele>0</ele>
        <time>2019-05-30T11:40:39Z</time>
      </trkpt>
      <trkpt lat="51.215268692153" lon="4.478833647753">
        <ele>0</ele>
        <time>2019-05-30T11:40:47Z</time>
      </trkpt>
      <trkpt lat="51.21546927102" lon="4.47887999966">
        <ele>0</ele>
        <time>2019-05-30T11:40:55Z</time>
      </trkpt>
      <trkpt lat="51.215661048892" lon="4.478981001555">
        <ele>0</ele>
        <time>2019-05-30T11:41:03Z</time>
      </trkpt>
      <trkpt lat="51.215836230602" lon="4.479094073386">
        <ele>0</ele>
        <time>2019-05-30T11:41:10Z</time>
      </trkpt>
      <trkpt lat="51.215989032639" lon="4.479265483241">
        <ele>0</ele>
        <time>2019-05-30T11:41:17Z</time>
      </trkpt>
      <trkpt lat="51.216128675093" lon="4.47946505628">
        <ele>0</ele>
        <time>2019-05-30T11:41:24Z</time>
      </trkpt>
      <trkpt lat="51.21613898483" lon="4.479764206291">
        <ele>0</ele>
        <time>2019-05-30T11:41:31Z</time>
      </trkpt>
      <trkpt lat="51.216153820793" lon="4.480072492573">
        <ele>1.8</ele>
        <time>2019-05-30T11:41:38Z</time>
      </trkpt>
      <trkpt lat="51.216187516031" lon="4.480320512994">
        <ele>3.4</ele>
        <time>2019-05-30T11:41:44Z</time>
      </trkpt>
      <trkpt lat="51.21616245415" lon="4.480384131615">
        <ele>3</ele>
        <time>2019-05-30T11:41:46Z</time>
      </trkpt>
      <trkpt lat="51.215961875283" lon="4.480404248175">
        <ele>3</ele>
        <time>2019-05-30T11:41:53Z</time>
      </trkpt>
      <trkpt lat="51.215768756307" lon="4.480383544882">
        <ele>3.2</ele>
        <time>2019-05-30T11:42:00Z</time>
      </trkpt>
      <trkpt lat="51.215581085566" lon="4.480360829933">
        <ele>1.4</ele>
        <time>2019-05-30T11:42:07Z</time>
      </trkpt>
      <trkpt lat="51.215395594119" lon="4.480333002025">
        <ele>0</ele>
        <time>2019-05-30T11:42:14Z</time>
      </trkpt>
      <trkpt lat="51.215194093243" lon="4.480309532705">
        <ele>0</ele>
        <time>2019-05-30T11:42:21Z</time>
      </trkpt>
      <trkpt lat="51.214832833353" lon="4.480404080537">
        <ele>0</ele>
        <time>2019-05-30T11:42:36Z</time>
      </trkpt>
      <trkpt lat="51.214644994974" lon="4.4803686251">
        <ele>0</ele>
        <time>2019-05-30T11:42:45Z</time>
      </trkpt>
      <trkpt lat="51.214448523238" lon="4.480253625432">
        <ele>0</ele>
        <time>2019-05-30T11:42:54Z</time>
      </trkpt>
      <trkpt lat="51.214262612696" lon="4.480129405674">
        <ele>0</ele>
        <time>2019-05-30T11:43:01Z</time>
      </trkpt>
      <trkpt lat="51.214072259747" lon="4.480003844812">
        <ele>0</ele>
        <time>2019-05-30T11:43:08Z</time>
      </trkpt>
      <trkpt lat="51.213899005874" lon="4.4798573292">
        <ele>0.4</ele>
        <time>2019-05-30T11:43:15Z</time>
      </trkpt>
      <trkpt lat="51.213737235204" lon="4.479721710058">
        <ele>2.6</ele>
        <time>2019-05-30T11:43:21Z</time>
      </trkpt>
      <trkpt lat="51.213570100118" lon="4.47955641899">
        <ele>4</ele>
        <time>2019-05-30T11:43:28Z</time>
      </trkpt>
      <trkpt lat="51.21340816181" lon="4.47938459004">
        <ele>4</ele>
        <time>2019-05-30T11:43:35Z</time>
      </trkpt>
      <trkpt lat="51.213255443592" lon="4.479218293144">
        <ele>4.8</ele>
        <time>2019-05-30T11:43:42Z</time>
      </trkpt>
      <trkpt lat="51.21308881142" lon="4.479064988193">
        <ele>6.2</ele>
        <time>2019-05-30T11:43:50Z</time>
      </trkpt>
      <trkpt lat="51.212935171193" lon="4.478901373505">
        <ele>8</ele>
        <time>2019-05-30T11:43:58Z</time>
      </trkpt>
      <trkpt lat="51.212773987256" lon="4.478740189568">
        <ele>8.2</ele>
        <time>2019-05-30T11:44:06Z</time>
      </trkpt>
      <trkpt lat="51.212619760296" lon="4.478585962608">
        <ele>7.2</ele>
        <time>2019-05-30T11:44:13Z</time>
      </trkpt>
      <trkpt lat="51.212425970768" lon="4.478497617382">
        <ele>3.6</ele>
        <time>2019-05-30T11:44:21Z</time>
      </trkpt>
      <trkpt lat="51.212224218435" lon="4.478459395918">
        <ele>3.4</ele>
        <time>2019-05-30T11:44:29Z</time>
      </trkpt>
      <trkpt lat="51.212043672309" lon="4.478431232734">
        <ele>1.4</ele>
        <time>2019-05-30T11:44:37Z</time>
      </trkpt>
      <trkpt lat="51.211848960772" lon="4.478407092862">
        <ele>0</ele>
        <time>2019-05-30T11:44:45Z</time>
      </trkpt>
      <trkpt lat="51.211664391334" lon="4.478405919396">
        <ele>0</ele>
        <time>2019-05-30T11:44:54Z</time>
      </trkpt>
      <trkpt lat="51.21148283938" lon="4.478453109493">
        <ele>0</ele>
        <time>2019-05-30T11:45:02Z</time>
      </trkpt>
      <trkpt lat="51.211431290695" lon="4.478442296842">
        <ele>0</ele>
        <time>2019-05-30T11:45:03Z</time>
      </trkpt>
      <trkpt lat="51.211280416495" lon="4.478281448181">
        <ele>0</ele>
        <time>2019-05-30T11:45:11Z</time>
      </trkpt>
      <trkpt lat="51.211143875344" lon="4.478061255668">
        <ele>0</ele>
        <time>2019-05-30T11:45:20Z</time>
      </trkpt>
      <trkpt lat="51.211044046915" lon="4.477771577204">
        <ele>0</ele>
        <time>2019-05-30T11:45:27Z</time>
      </trkpt>
      <trkpt lat="51.210924688659" lon="4.477521628946">
        <ele>0</ele>
        <time>2019-05-30T11:45:33Z</time>
      </trkpt>
      <trkpt lat="51.210832571578" lon="4.477260281304">
        <ele>1.8</ele>
        <time>2019-05-30T11:45:40Z</time>
      </trkpt>
      <trkpt lat="51.210739700126" lon="4.476977727455">
        <ele>4.8</ele>
        <time>2019-05-30T11:45:48Z</time>
      </trkpt>
      <trkpt lat="51.210642973" lon="4.476702968773">
        <ele>7.8</ele>
        <time>2019-05-30T11:45:56Z</time>
      </trkpt>
      <trkpt lat="51.210549347177" lon="4.476434580335">
        <ele>8.8</ele>
        <time>2019-05-30T11:46:04Z</time>
      </trkpt>
      <trkpt lat="51.210478101027" lon="4.476131407012">
        <ele>5.6</ele>
        <time>2019-05-30T11:46:12Z</time>
      </trkpt>
      <trkpt lat="51.210416996976" lon="4.475861426013">
        <ele>5.4</ele>
        <time>2019-05-30T11:46:19Z</time>
      </trkpt>
      <trkpt lat="51.210357066391" lon="4.475578033974">
        <ele>5.6</ele>
        <time>2019-05-30T11:46:26Z</time>
      </trkpt>
      <trkpt lat="51.210311301217" lon="4.475263796543">
        <ele>6.6</ele>
        <time>2019-05-30T11:46:35Z</time>
      </trkpt>
      <trkpt lat="51.210233684823" lon="4.474973447527">
        <ele>6.2</ele>
        <time>2019-05-30T11:46:43Z</time>
      </trkpt>
      <trkpt lat="51.210179537749" lon="4.474662981951">
        <ele>3.8</ele>
        <time>2019-05-30T11:46:51Z</time>
      </trkpt>
      <trkpt lat="51.210093623274" lon="4.474402137223">
        <ele>3.2</ele>
        <time>2019-05-30T11:46:58Z</time>
      </trkpt>
      <trkpt lat="51.209988430429" lon="4.474149003843">
        <ele>1.8</ele>
        <time>2019-05-30T11:47:05Z</time>
      </trkpt>
      <trkpt lat="51.209900420479" lon="4.473895032273">
        <ele>2</ele>
        <time>2019-05-30T11:47:12Z</time>
      </trkpt>
      <trkpt lat="51.209800005317" lon="4.473655393752">
        <ele>5.2</ele>
        <time>2019-05-30T11:47:19Z</time>
      </trkpt>
      <trkpt lat="51.209671426971" lon="4.473425310597">
        <ele>7.2</ele>
        <time>2019-05-30T11:47:26Z</time>
      </trkpt>
      <trkpt lat="51.209521139504" lon="4.473200088944">
        <ele>8.4</ele>
        <time>2019-05-30T11:47:33Z</time>
      </trkpt>
      <trkpt lat="51.209372696055" lon="4.473010658004">
        <ele>9.6</ele>
        <time>2019-05-30T11:47:40Z</time>
      </trkpt>
      <trkpt lat="51.209228611194" lon="4.472832374991">
        <ele>8.4</ele>
        <time>2019-05-30T11:47:48Z</time>
      </trkpt>
      <trkpt lat="51.209089974568" lon="4.472746209059">
        <ele>1.8</ele>
        <time>2019-05-30T11:48:00Z</time>
      </trkpt>
      <trkpt lat="51.209097266821" lon="4.472692397261">
        <ele>0.8</ele>
        <time>2019-05-30T11:49:07Z</time>
      </trkpt>
      <trkpt lat="51.209101960685" lon="4.47273355239">
        <ele>0.8</ele>
        <time>2019-05-30T11:49:08Z</time>
      </trkpt>
      <trkpt lat="51.209106067816" lon="4.472771354759">
        <ele>0.8</ele>
        <time>2019-05-30T11:49:10Z</time>
      </trkpt>
      <trkpt lat="51.209094668432" lon="4.473081820335">
        <ele>3.4</ele>
        <time>2019-05-30T11:49:17Z</time>
      </trkpt>
      <trkpt lat="51.209039347892" lon="4.473208722301">
        <ele>3.4</ele>
        <time>2019-05-30T11:49:21Z</time>
      </trkpt>
      <trkpt lat="51.209004060093" lon="4.473504771009">
        <ele>4</ele>
        <time>2019-05-30T11:49:28Z</time>
      </trkpt>
      <trkpt lat="51.208966593" lon="4.474012462692">
        <ele>3.6</ele>
        <time>2019-05-30T11:49:40Z</time>
      </trkpt>
      <trkpt lat="51.208930131735" lon="4.474317815309">
        <ele>0</ele>
        <time>2019-05-30T11:49:47Z</time>
      </trkpt>
      <trkpt lat="51.208888306054" lon="4.474619563709">
        <ele>0</ele>
        <time>2019-05-30T11:49:54Z</time>
      </trkpt>
      <trkpt lat="51.208859220861" lon="4.474925754516">
        <ele>1.2</ele>
        <time>2019-05-30T11:50:01Z</time>
      </trkpt>
      <trkpt lat="51.208801134294" lon="4.475234376074">
        <ele>4.4</ele>
        <time>2019-05-30T11:50:09Z</time>
      </trkpt>
      <trkpt lat="51.208749837066" lon="4.475547020944">
        <ele>5</ele>
        <time>2019-05-30T11:50:17Z</time>
      </trkpt>
      <trkpt lat="51.20870843048" lon="4.475825719119">
        <ele>4.6</ele>
        <time>2019-05-30T11:50:24Z</time>
      </trkpt>
      <trkpt lat="51.208634753579" lon="4.476138531627">
        <ele>13.6</ele>
        <time>2019-05-30T11:50:32Z</time>
      </trkpt>
      <trkpt lat="51.208598040857" lon="4.476438938923">
        <ele>13.6</ele>
        <time>2019-05-30T11:50:40Z</time>
      </trkpt>
      <trkpt lat="51.208571218777" lon="4.476747225205">
        <ele>10.2</ele>
        <time>2019-05-30T11:50:48Z</time>
      </trkpt>
      <trkpt lat="51.208551605131" lon="4.477037322764">
        <ele>9.8</ele>
        <time>2019-05-30T11:50:55Z</time>
      </trkpt>
      <trkpt lat="51.208487232139" lon="4.477343848847">
        <ele>11.4</ele>
        <time>2019-05-30T11:51:03Z</time>
      </trkpt>
      <trkpt lat="51.208473821099" lon="4.477634365501">
        <ele>9.8</ele>
        <time>2019-05-30T11:51:10Z</time>
      </trkpt>
      <trkpt lat="51.208440377318" lon="4.477929659838">
        <ele>8.6</ele>
        <time>2019-05-30T11:51:17Z</time>
      </trkpt>
      <trkpt lat="51.208362006553" lon="4.478199557018">
        <ele>13.2</ele>
        <time>2019-05-30T11:51:24Z</time>
      </trkpt>
      <trkpt lat="51.208283300512" lon="4.478470711483">
        <ele>14.8</ele>
        <time>2019-05-30T11:51:31Z</time>
      </trkpt>
      <trkpt lat="51.208191686345" lon="4.478728622546">
        <ele>13.2</ele>
        <time>2019-05-30T11:51:38Z</time>
      </trkpt>
      <trkpt lat="51.208083308378" lon="4.478964153936">
        <ele>11.6</ele>
        <time>2019-05-30T11:51:45Z</time>
      </trkpt>
      <trkpt lat="51.207948946521" lon="4.479204211552">
        <ele>10.2</ele>
        <time>2019-05-30T11:51:53Z</time>
      </trkpt>
      <trkpt lat="51.207819697623" lon="4.479404287505">
        <ele>6.4</ele>
        <time>2019-05-30T11:52:00Z</time>
      </trkpt>
      <trkpt lat="51.207659268057" lon="4.479597238843">
        <ele>2.6</ele>
        <time>2019-05-30T11:52:08Z</time>
      </trkpt>
      <trkpt lat="51.207499509043" lon="4.479771079449">
        <ele>0</ele>
        <time>2019-05-30T11:52:15Z</time>
      </trkpt>
      <trkpt lat="51.207335894355" lon="4.479946764073">
        <ele>0</ele>
        <time>2019-05-30T11:52:22Z</time>
      </trkpt>
      <trkpt lat="51.207175548608" lon="4.480114737349">
        <ele>1</ele>
        <time>2019-05-30T11:52:29Z</time>
      </trkpt>
      <trkpt lat="51.207010676635" lon="4.48029821714">
        <ele>2.2</ele>
        <time>2019-05-30T11:52:37Z</time>
      </trkpt>
      <trkpt lat="51.206843122454" lon="4.480481110198">
        <ele>3.8</ele>
        <time>2019-05-30T11:52:45Z</time>
      </trkpt>
      <trkpt lat="51.206692834987" lon="4.480656794822">
        <ele>3.8</ele>
        <time>2019-05-30T11:52:52Z</time>
      </trkpt>
      <trkpt lat="51.206541793149" lon="4.480837508586">
        <ele>1.2</ele>
        <time>2019-05-30T11:53:00Z</time>
      </trkpt>
      <trkpt lat="51.20639502608" lon="4.481008666984">
        <ele>0</ele>
        <time>2019-05-30T11:53:08Z</time>
      </trkpt>
      <trkpt lat="51.20622990265" lon="4.481184351608">
        <ele>0</ele>
        <time>2019-05-30T11:53:16Z</time>
      </trkpt>
      <trkpt lat="51.206072490568" lon="4.481362131707">
        <ele>0.6</ele>
        <time>2019-05-30T11:53:24Z</time>
      </trkpt>
      <trkpt lat="51.205932680476" lon="4.481556591787">
        <ele>0.8</ele>
        <time>2019-05-30T11:53:31Z</time>
      </trkpt>
      <trkpt lat="51.205772670005" lon="4.481761948337">
        <ele>1.2</ele>
        <time>2019-05-30T11:53:39Z</time>
      </trkpt>
      <trkpt lat="51.205613078629" lon="4.481931933269">
        <ele>0.6</ele>
        <time>2019-05-30T11:53:46Z</time>
      </trkpt>
      <trkpt lat="51.205456504737" lon="4.48210619297">
        <ele>1</ele>
        <time>2019-05-30T11:53:53Z</time>
      </trkpt>
      <trkpt lat="51.205308061288" lon="4.482291265322">
        <ele>0</ele>
        <time>2019-05-30T11:54:01Z</time>
      </trkpt>
      <trkpt lat="51.205155007794" lon="4.482487150325">
        <ele>0</ele>
        <time>2019-05-30T11:54:10Z</time>
      </trkpt>
      <trkpt lat="51.204990638735" lon="4.482665684795">
        <ele>3</ele>
        <time>2019-05-30T11:54:19Z</time>
      </trkpt>
      <trkpt lat="51.204823252192" lon="4.482821504316">
        <ele>5.4</ele>
        <time>2019-05-30T11:54:29Z</time>
      </trkpt>
      <trkpt lat="51.204655195097" lon="4.483020993536">
        <ele>0</ele>
        <time>2019-05-30T11:54:36Z</time>
      </trkpt>
      <trkpt lat="51.204492670056" lon="4.483211681761">
        <ele>0</ele>
        <time>2019-05-30T11:54:43Z</time>
      </trkpt>
      <trkpt lat="51.204349926299" lon="4.483414439922">
        <ele>0</ele>
        <time>2019-05-30T11:54:50Z</time>
      </trkpt>
      <trkpt lat="51.204205925257" lon="4.483618706825">
        <ele>0</ele>
        <time>2019-05-30T11:54:57Z</time>
      </trkpt>
      <trkpt lat="51.204034096307" lon="4.483765641532">
        <ele>0</ele>
        <time>2019-05-30T11:55:03Z</time>
      </trkpt>
      <trkpt lat="51.203870146343" lon="4.48396026925">
        <ele>0</ele>
        <time>2019-05-30T11:55:11Z</time>
      </trkpt>
      <trkpt lat="51.20370778894" lon="4.484123967757">
        <ele>0</ele>
        <time>2019-05-30T11:55:18Z</time>
      </trkpt>
      <trkpt lat="51.20348231583" lon="4.484408617081">
        <ele>0</ele>
        <time>2019-05-30T11:55:29Z</time>
      </trkpt>
      <trkpt lat="51.203464965297" lon="4.484421944302">
        <ele>0</ele>
        <time>2019-05-30T11:55:30Z</time>
      </trkpt>
      <trkpt lat="51.203385421066" lon="4.484190268586">
        <ele>3</ele>
        <time>2019-05-30T11:55:56Z</time>
      </trkpt>
      <trkpt lat="51.203363544307" lon="4.484163865601">
        <ele>3.4</ele>
        <time>2019-05-30T11:55:58Z</time>
      </trkpt>
      <trkpt lat="51.203326161033" lon="4.484148526724">
        <ele>3.8</ele>
        <time>2019-05-30T11:56:00Z</time>
      </trkpt>
      <trkpt lat="51.203123235234" lon="4.484172582777">
        <ele>4</ele>
        <time>2019-05-30T11:56:08Z</time>
      </trkpt>
      <trkpt lat="51.202982335495" lon="4.484343824994">
        <ele>2.8</ele>
        <time>2019-05-30T11:56:15Z</time>
      </trkpt>
      <trkpt lat="51.202874711899" lon="4.484575752167">
        <ele>2.4</ele>
        <time>2019-05-30T11:56:22Z</time>
      </trkpt>
      <trkpt lat="51.202746552648" lon="4.484810780643">
        <ele>3.8</ele>
        <time>2019-05-30T11:56:30Z</time>
      </trkpt>
      <trkpt lat="51.202591906593" lon="4.485014041718">
        <ele>4</ele>
        <time>2019-05-30T11:56:37Z</time>
      </trkpt>
      <trkpt lat="51.202439775108" lon="4.485202550649">
        <ele>2.8</ele>
        <time>2019-05-30T11:56:45Z</time>
      </trkpt>
      <trkpt lat="51.202391495364" lon="4.485235575335">
        <ele>1.8</ele>
        <time>2019-05-30T11:56:46Z</time>
      </trkpt>
      <trkpt lat="51.202343802353" lon="4.485234066593">
        <ele>0.8</ele>
        <time>2019-05-30T11:56:49Z</time>
      </trkpt>
      <trkpt lat="51.202276495696" lon="4.485211100187">
        <ele>4.2</ele>
        <time>2019-05-30T11:57:40Z</time>
      </trkpt>
      <trkpt lat="51.202280519008" lon="4.48527706574">
        <ele>5.8</ele>
        <time>2019-05-30T11:57:43Z</time>
      </trkpt>
      <trkpt lat="51.202182702235" lon="4.485549142214">
        <ele>5.6</ele>
        <time>2019-05-30T11:57:51Z</time>
      </trkpt>
      <trkpt lat="51.202039958478" lon="4.485728179598">
        <ele>5.2</ele>
        <time>2019-05-30T11:57:58Z</time>
      </trkpt>
      <trkpt lat="51.201900735119" lon="4.485944097342">
        <ele>6</ele>
        <time>2019-05-30T11:58:06Z</time>
      </trkpt>
      <trkpt lat="51.201789591125" lon="4.486202343681">
        <ele>10.4</ele>
        <time>2019-05-30T11:58:14Z</time>
      </trkpt>
      <trkpt lat="51.201694372741" lon="4.486487663557">
        <ele>15.6</ele>
        <time>2019-05-30T11:58:22Z</time>
      </trkpt>
      <trkpt lat="51.201594544312" lon="4.48672964901">
        <ele>20.4</ele>
        <time>2019-05-30T11:58:29Z</time>
      </trkpt>
      <trkpt lat="51.201475521332" lon="4.486964845124">
        <ele>21.4</ele>
        <time>2019-05-30T11:58:37Z</time>
      </trkpt>
      <trkpt lat="51.201356833628" lon="4.487212781726">
        <ele>21.4</ele>
        <time>2019-05-30T11:58:44Z</time>
      </trkpt>
      <trkpt lat="51.201226997997" lon="4.487469184047">
        <ele>14</ele>
        <time>2019-05-30T11:58:51Z</time>
      </trkpt>
      <trkpt lat="51.201090708303" lon="4.487668757086">
        <ele>8.4</ele>
        <time>2019-05-30T11:58:57Z</time>
      </trkpt>
      <trkpt lat="51.200931955117" lon="4.487819379829">
        <ele>6.4</ele>
        <time>2019-05-30T11:59:05Z</time>
      </trkpt>
      <trkpt lat="51.200791306835" lon="4.488020880705">
        <ele>7.6</ele>
        <time>2019-05-30T11:59:13Z</time>
      </trkpt>
      <trkpt lat="51.200660716833" lon="4.488264291081">
        <ele>9.6</ele>
        <time>2019-05-30T11:59:21Z</time>
      </trkpt>
      <trkpt lat="51.200533228134" lon="4.488515580443">
        <ele>10.6</ele>
        <time>2019-05-30T11:59:29Z</time>
      </trkpt>
      <trkpt lat="51.200424766348" lon="4.488770138746">
        <ele>15.2</ele>
        <time>2019-05-30T11:59:37Z</time>
      </trkpt>
      <trkpt lat="51.200329967059" lon="4.489025535239">
        <ele>21</ele>
        <time>2019-05-30T11:59:45Z</time>
      </trkpt>
      <trkpt lat="51.200218236332" lon="4.489261821">
        <ele>26</ele>
        <time>2019-05-30T11:59:53Z</time>
      </trkpt>
      <trkpt lat="51.200112037659" lon="4.489496178924">
        <ele>27.4</ele>
        <time>2019-05-30T12:00:01Z</time>
      </trkpt>
      <trkpt lat="51.200002737683" lon="4.489731291219">
        <ele>30</ele>
        <time>2019-05-30T12:00:08Z</time>
      </trkpt>
      <trkpt lat="51.199900227046" lon="4.48999020811">
        <ele>31</ele>
        <time>2019-05-30T12:00:15Z</time>
      </trkpt>
      <trkpt lat="51.199780449695" lon="4.490203276008">
        <ele>30.2</ele>
        <time>2019-05-30T12:00:21Z</time>
      </trkpt>
      <trkpt lat="51.199620439224" lon="4.490373344759">
        <ele>22.8</ele>
        <time>2019-05-30T12:00:28Z</time>
      </trkpt>
      <trkpt lat="51.199488759575" lon="4.490595297471">
        <ele>18.8</ele>
        <time>2019-05-30T12:00:34Z</time>
      </trkpt>
      <trkpt lat="51.199334281158" lon="4.49079487051">
        <ele>13.8</ele>
        <time>2019-05-30T12:00:41Z</time>
      </trkpt>
      <trkpt lat="51.199283905939" lon="4.490887239048">
        <ele>10.4</ele>
        <time>2019-05-30T12:00:44Z</time>
      </trkpt>
      <trkpt lat="51.199245768294" lon="4.490909199626">
        <ele>7</ele>
        <time>2019-05-30T12:00:48Z</time>
      </trkpt>
      <trkpt lat="51.199225232639" lon="4.490943733054">
        <ele>6.4</ele>
        <time>2019-05-30T12:00:50Z</time>
      </trkpt>
      <trkpt lat="51.199101599614" lon="4.491176833693">
        <ele>5</ele>
        <time>2019-05-30T12:00:58Z</time>
      </trkpt>
      <trkpt lat="51.199011661827" lon="4.491428877426">
        <ele>5.2</ele>
        <time>2019-05-30T12:01:05Z</time>
      </trkpt>
      <trkpt lat="51.198913761235" lon="4.491697936416">
        <ele>9.8</ele>
        <time>2019-05-30T12:01:13Z</time>
      </trkpt>
      <trkpt lat="51.198806808191" lon="4.491956015117">
        <ele>11.2</ele>
        <time>2019-05-30T12:01:21Z</time>
      </trkpt>
      <trkpt lat="51.198705135744" lon="4.492233958921">
        <ele>14.2</ele>
        <time>2019-05-30T12:01:29Z</time>
      </trkpt>
      <trkpt lat="51.19860405003" lon="4.49250729268">
        <ele>17.4</ele>
        <time>2019-05-30T12:01:37Z</time>
      </trkpt>
      <trkpt lat="51.198497516081" lon="4.492752127979">
        <ele>15.6</ele>
        <time>2019-05-30T12:01:44Z</time>
      </trkpt>
      <trkpt lat="51.198391401227" lon="4.492985228618">
        <ele>15.8</ele>
        <time>2019-05-30T12:01:51Z</time>
      </trkpt>
      <trkpt lat="51.198274054627" lon="4.493250431934">
        <ele>16.6</ele>
        <time>2019-05-30T12:01:59Z</time>
      </trkpt>
      <trkpt lat="51.19817154399" lon="4.493528459557">
        <ele>17.8</ele>
        <time>2019-05-30T12:02:07Z</time>
      </trkpt>
      <trkpt lat="51.198069955362" lon="4.493790729208">
        <ele>9.4</ele>
        <time>2019-05-30T12:02:15Z</time>
      </trkpt>
      <trkpt lat="51.197934922953" lon="4.494034726317">
        <ele>4.8</ele>
        <time>2019-05-30T12:02:22Z</time>
      </trkpt>
      <trkpt lat="51.197814726507" lon="4.494251482251">
        <ele>3.2</ele>
        <time>2019-05-30T12:02:29Z</time>
      </trkpt>
      <trkpt lat="51.197578273108" lon="4.494733022406">
        <ele>1.4</ele>
        <time>2019-05-30T12:02:44Z</time>
      </trkpt>
      <trkpt lat="51.197436618998" lon="4.494941061164">
        <ele>0</ele>
        <time>2019-05-30T12:02:52Z</time>
      </trkpt>
      <trkpt lat="51.19731910476" lon="4.495177346925">
        <ele>0</ele>
        <time>2019-05-30T12:02:59Z</time>
      </trkpt>
      <trkpt lat="51.1972067873" lon="4.495415392885">
        <ele>0.2</ele>
        <time>2019-05-30T12:03:06Z</time>
      </trkpt>
      <trkpt lat="51.197112574744" lon="4.495673387767">
        <ele>1</ele>
        <time>2019-05-30T12:03:13Z</time>
      </trkpt>
      <trkpt lat="51.19704836939" lon="4.495967005724">
        <ele>2.6</ele>
        <time>2019-05-30T12:03:20Z</time>
      </trkpt>
      <trkpt lat="51.196940913432" lon="4.49620957791">
        <ele>4</ele>
        <time>2019-05-30T12:03:27Z</time>
      </trkpt>
      <trkpt lat="51.196823483013" lon="4.496474865045">
        <ele>4.4</ele>
        <time>2019-05-30T12:03:35Z</time>
      </trkpt>
      <trkpt lat="51.196724744231" lon="4.496740906551">
        <ele>3.8</ele>
        <time>2019-05-30T12:03:43Z</time>
      </trkpt>
      <trkpt lat="51.196592729306" lon="4.496976186484">
        <ele>5.2</ele>
        <time>2019-05-30T12:03:51Z</time>
      </trkpt>
      <trkpt lat="51.196510419048" lon="4.497234768099">
        <ele>6.6</ele>
        <time>2019-05-30T12:03:59Z</time>
      </trkpt>
      <trkpt lat="51.196447973893" lon="4.497527547866">
        <ele>10</ele>
        <time>2019-05-30T12:04:07Z</time>
      </trkpt>
      <trkpt lat="51.196350660034" lon="4.497813203018">
        <ele>9</ele>
        <time>2019-05-30T12:04:15Z</time>
      </trkpt>
      <trkpt lat="51.196241946791" lon="4.498058122136">
        <ele>4.8</ele>
        <time>2019-05-30T12:04:22Z</time>
      </trkpt>
      <trkpt lat="51.196152847194" lon="4.498319050683">
        <ele>3.4</ele>
        <time>2019-05-30T12:04:29Z</time>
      </trkpt>
      <trkpt lat="51.196081349587" lon="4.49860428674">
        <ele>5</ele>
        <time>2019-05-30T12:04:37Z</time>
      </trkpt>
      <trkpt lat="51.196014629663" lon="4.498894887213">
        <ele>6.4</ele>
        <time>2019-05-30T12:04:45Z</time>
      </trkpt>
      <trkpt lat="51.195950089033" lon="4.499179955632">
        <ele>5.6</ele>
        <time>2019-05-30T12:04:53Z</time>
      </trkpt>
      <trkpt lat="51.195882279462" lon="4.499443650206">
        <ele>7</ele>
        <time>2019-05-30T12:05:00Z</time>
      </trkpt>
      <trkpt lat="51.195835173184" lon="4.499744057502">
        <ele>8.8</ele>
        <time>2019-05-30T12:05:08Z</time>
      </trkpt>
      <trkpt lat="51.195800975032" lon="4.500034155061">
        <ele>11</ele>
        <time>2019-05-30T12:05:16Z</time>
      </trkpt>
      <trkpt lat="51.195818660841" lon="4.500353673089">
        <ele>11.6</ele>
        <time>2019-05-30T12:05:24Z</time>
      </trkpt>
      <trkpt lat="51.195790916752" lon="4.500658355154">
        <ele>11</ele>
        <time>2019-05-30T12:05:31Z</time>
      </trkpt>
      <trkpt lat="51.195740625352" lon="4.500956583156">
        <ele>8.2</ele>
        <time>2019-05-30T12:05:38Z</time>
      </trkpt>
      <trkpt lat="51.195675497989" lon="4.50122363049">
        <ele>7.8</ele>
        <time>2019-05-30T12:05:45Z</time>
      </trkpt>
      <trkpt lat="51.195680108034" lon="4.501517416085">
        <ele>7.4</ele>
        <time>2019-05-30T12:05:52Z</time>
      </trkpt>
      <trkpt lat="51.195665942623" lon="4.501804831436">
        <ele>6.2</ele>
        <time>2019-05-30T12:05:59Z</time>
      </trkpt>
      <trkpt lat="51.195665188252" lon="4.502092246787">
        <ele>7.4</ele>
        <time>2019-05-30T12:06:06Z</time>
      </trkpt>
      <trkpt lat="51.195664266243" lon="4.502395001015">
        <ele>7.4</ele>
        <time>2019-05-30T12:06:13Z</time>
      </trkpt>
      <trkpt lat="51.195708019761" lon="4.502710998645">
        <ele>7.6</ele>
        <time>2019-05-30T12:06:21Z</time>
      </trkpt>
      <trkpt lat="51.195689831038" lon="4.503023140601">
        <ele>9.4</ele>
        <time>2019-05-30T12:06:29Z</time>
      </trkpt>
      <trkpt lat="51.195678431654" lon="4.503336120747">
        <ele>7</ele>
        <time>2019-05-30T12:06:37Z</time>
      </trkpt>
      <trkpt lat="51.195718748593" lon="4.503642814468">
        <ele>5.2</ele>
        <time>2019-05-30T12:06:45Z</time>
      </trkpt>
      <trkpt lat="51.195761412464" lon="4.503941126289">
        <ele>6.4</ele>
        <time>2019-05-30T12:06:53Z</time>
      </trkpt>
      <trkpt lat="51.19578521706" lon="4.504235917712">
        <ele>8.2</ele>
        <time>2019-05-30T12:07:00Z</time>
      </trkpt>
      <trkpt lat="51.195848751862" lon="4.50451101167">
        <ele>11</ele>
        <time>2019-05-30T12:07:07Z</time>
      </trkpt>
      <trkpt lat="51.195918405451" lon="4.504815442278">
        <ele>10.2</ele>
        <time>2019-05-30T12:07:15Z</time>
      </trkpt>
      <trkpt lat="51.195955201992" lon="4.505107048579">
        <ele>11.4</ele>
        <time>2019-05-30T12:07:22Z</time>
      </trkpt>
      <trkpt lat="51.195962661883" lon="4.505410892454">
        <ele>9.4</ele>
        <time>2019-05-30T12:07:29Z</time>
      </trkpt>
      <trkpt lat="51.195928379912" lon="4.505710964474">
        <ele>6.2</ele>
        <time>2019-05-30T12:07:36Z</time>
      </trkpt>
      <trkpt lat="51.195908682447" lon="4.506021010955">
        <ele>3.4</ele>
        <time>2019-05-30T12:07:44Z</time>
      </trkpt>
      <trkpt lat="51.195922596401" lon="4.50634161863">
        <ele>4.2</ele>
        <time>2019-05-30T12:07:52Z</time>
      </trkpt>
      <trkpt lat="51.195932235586" lon="4.506654598776">
        <ele>4.8</ele>
        <time>2019-05-30T12:08:00Z</time>
      </trkpt>
      <trkpt lat="51.195995267474" lon="4.506932207304">
        <ele>8.6</ele>
        <time>2019-05-30T12:08:07Z</time>
      </trkpt>
      <trkpt lat="51.196054862783" lon="4.507209815832">
        <ele>10</ele>
        <time>2019-05-30T12:08:14Z</time>
      </trkpt>
      <trkpt lat="51.196083947976" lon="4.507525562005">
        <ele>8.2</ele>
        <time>2019-05-30T12:08:22Z</time>
      </trkpt>
      <trkpt lat="51.196122672354" lon="4.508042976692">
        <ele>6.8</ele>
        <time>2019-05-30T12:08:36Z</time>
      </trkpt>
      <trkpt lat="51.196145890217" lon="4.508345144187">
        <ele>7.4</ele>
        <time>2019-05-30T12:08:44Z</time>
      </trkpt>
      <trkpt lat="51.196154523574" lon="4.508653514288">
        <ele>6</ele>
        <time>2019-05-30T12:08:52Z</time>
      </trkpt>
      <trkpt lat="51.196176065057" lon="4.508934475576">
        <ele>5</ele>
        <time>2019-05-30T12:09:00Z</time>
      </trkpt>
      <trkpt lat="51.196191152477" lon="4.509253323052">
        <ele>4.2</ele>
        <time>2019-05-30T12:09:08Z</time>
      </trkpt>
      <trkpt lat="51.196204647336" lon="4.509544510258">
        <ele>3.8</ele>
        <time>2019-05-30T12:09:15Z</time>
      </trkpt>
      <trkpt lat="51.196238258755" lon="4.509847096848">
        <ele>5.6</ele>
        <time>2019-05-30T12:09:23Z</time>
      </trkpt>
      <trkpt lat="51.196244628999" lon="4.510172398387">
        <ele>2.6</ele>
        <time>2019-05-30T12:09:31Z</time>
      </trkpt>
      <trkpt lat="51.196240438049" lon="4.510461406299">
        <ele>0</ele>
        <time>2019-05-30T12:09:38Z</time>
      </trkpt>
      <trkpt lat="51.196242533524" lon="4.510772039513">
        <ele>0</ele>
        <time>2019-05-30T12:09:46Z</time>
      </trkpt>
      <trkpt lat="51.196255022555" lon="4.511060125416">
        <ele>0</ele>
        <time>2019-05-30T12:09:53Z</time>
      </trkpt>
      <trkpt lat="51.196372872069" lon="4.511327340388">
        <ele>1</ele>
        <time>2019-05-30T12:10:00Z</time>
      </trkpt>
      <trkpt lat="51.196439927269" lon="4.511613749911">
        <ele>5.4</ele>
        <time>2019-05-30T12:10:07Z</time>
      </trkpt>
      <trkpt lat="51.196491224497" lon="4.511906445859">
        <ele>10.2</ele>
        <time>2019-05-30T12:10:14Z</time>
      </trkpt>
      <trkpt lat="51.196522405165" lon="4.512199812359">
        <ele>12</ele>
        <time>2019-05-30T12:10:21Z</time>
      </trkpt>
      <trkpt lat="51.196558195878" lon="4.512489071728">
        <ele>11.6</ele>
        <time>2019-05-30T12:10:28Z</time>
      </trkpt>
      <trkpt lat="51.196599267188" lon="4.512771122663">
        <ele>11.2</ele>
        <time>2019-05-30T12:10:35Z</time>
      </trkpt>
      <trkpt lat="51.196625167259" lon="4.51309407727">
        <ele>10.8</ele>
        <time>2019-05-30T12:10:43Z</time>
      </trkpt>
      <trkpt lat="51.196653246624" lon="4.513381324983">
        <ele>9.8</ele>
        <time>2019-05-30T12:10:50Z</time>
      </trkpt>
      <trkpt lat="51.196699095617" lon="4.513683743935">
        <ele>9.4</ele>
        <time>2019-05-30T12:10:57Z</time>
      </trkpt>
      <trkpt lat="51.196699263255" lon="4.513981469023">
        <ele>6.4</ele>
        <time>2019-05-30T12:11:04Z</time>
      </trkpt>
      <trkpt lat="51.196725833878" lon="4.514279529387">
        <ele>4.4</ele>
        <time>2019-05-30T12:11:11Z</time>
      </trkpt>
      <trkpt lat="51.196735305425" lon="4.514584462909">
        <ele>1.6</ele>
        <time>2019-05-30T12:11:18Z</time>
      </trkpt>
      <trkpt lat="51.196776544373" lon="4.514886295128">
        <ele>3.4</ele>
        <time>2019-05-30T12:11:25Z</time>
      </trkpt>
      <trkpt lat="51.196828176877" lon="4.515167424054">
        <ele>5.8</ele>
        <time>2019-05-30T12:11:32Z</time>
      </trkpt>
      <trkpt lat="51.196864889599" lon="4.515479901286">
        <ele>4.8</ele>
        <time>2019-05-30T12:11:40Z</time>
      </trkpt>
      <trkpt lat="51.196891711679" lon="4.5157653888">
        <ele>3.8</ele>
        <time>2019-05-30T12:11:47Z</time>
      </trkpt>
      <trkpt lat="51.196905960909" lon="4.516060012585">
        <ele>2</ele>
        <time>2019-05-30T12:11:54Z</time>
      </trkpt>
      <trkpt lat="51.196919707225" lon="4.516369807609">
        <ele>0</ele>
        <time>2019-05-30T12:12:02Z</time>
      </trkpt>
      <trkpt lat="51.196954743567" lon="4.516682117203">
        <ele>0</ele>
        <time>2019-05-30T12:12:10Z</time>
      </trkpt>
      <trkpt lat="51.196996150153" lon="4.516971795667">
        <ele>0</ele>
        <time>2019-05-30T12:12:17Z</time>
      </trkpt>
      <trkpt lat="51.197034539255" lon="4.517285614003">
        <ele>1.4</ele>
        <time>2019-05-30T12:12:24Z</time>
      </trkpt>
      <trkpt lat="51.197126404879" lon="4.517552996613">
        <ele>8.4</ele>
        <time>2019-05-30T12:12:31Z</time>
      </trkpt>
      <trkpt lat="51.19718499436" lon="4.517830437503">
        <ele>11.4</ele>
        <time>2019-05-30T12:12:38Z</time>
      </trkpt>
      <trkpt lat="51.197240733995" lon="4.518126234754">
        <ele>8.8</ele>
        <time>2019-05-30T12:12:46Z</time>
      </trkpt>
      <trkpt lat="51.197320864959" lon="4.518392695355">
        <ele>10.6</ele>
        <time>2019-05-30T12:12:53Z</time>
      </trkpt>
      <trkpt lat="51.197377275146" lon="4.518681032715">
        <ele>12.2</ele>
        <time>2019-05-30T12:13:00Z</time>
      </trkpt>
      <trkpt lat="51.197411138022" lon="4.518966771686">
        <ele>11</ele>
        <time>2019-05-30T12:13:07Z</time>
      </trkpt>
      <trkpt lat="51.1974666262" lon="4.519269693552">
        <ele>8.8</ele>
        <time>2019-05-30T12:13:15Z</time>
      </trkpt>
      <trkpt lat="51.197518761618" lon="4.519577141644">
        <ele>6.6</ele>
        <time>2019-05-30T12:13:23Z</time>
      </trkpt>
      <trkpt lat="51.19754960701" lon="4.519869837592">
        <ele>4.8</ele>
        <time>2019-05-30T12:13:30Z</time>
      </trkpt>
      <trkpt lat="51.197604508455" lon="4.520181225177">
        <ele>3.2</ele>
        <time>2019-05-30T12:13:38Z</time>
      </trkpt>
      <trkpt lat="51.197644238661" lon="4.520488170355">
        <ele>2.6</ele>
        <time>2019-05-30T12:13:45Z</time>
      </trkpt>
      <trkpt lat="51.197695368251" lon="4.520776340077">
        <ele>1</ele>
        <time>2019-05-30T12:13:52Z</time>
      </trkpt>
      <trkpt lat="51.197747168393" lon="4.521076076821">
        <ele>0.6</ele>
        <time>2019-05-30T12:13:59Z</time>
      </trkpt>
      <trkpt lat="51.197808440082" lon="4.521382770542">
        <ele>2</ele>
        <time>2019-05-30T12:14:07Z</time>
      </trkpt>
      <trkpt lat="51.197932911297" lon="4.521963468574">
        <ele>3.6</ele>
        <time>2019-05-30T12:14:21Z</time>
      </trkpt>
      <trkpt lat="51.197901982086" lon="4.522245016595">
        <ele>2.4</ele>
        <time>2019-05-30T12:14:28Z</time>
      </trkpt>
      <trkpt lat="51.197902233543" lon="4.522536455258">
        <ele>1</ele>
        <time>2019-05-30T12:14:35Z</time>
      </trkpt>
      <trkpt lat="51.197903071733" lon="4.522843232798">
        <ele>0</ele>
        <time>2019-05-30T12:14:42Z</time>
      </trkpt>
      <trkpt lat="51.197922014827" lon="4.523134839099">
        <ele>0</ele>
        <time>2019-05-30T12:14:49Z</time>
      </trkpt>
      <trkpt lat="51.197959398101" lon="4.523450836729">
        <ele>0</ele>
        <time>2019-05-30T12:14:57Z</time>
      </trkpt>
      <trkpt lat="51.197997871022" lon="4.523739425546">
        <ele>4</ele>
        <time>2019-05-30T12:15:04Z</time>
      </trkpt>
      <trkpt lat="51.197980269032" lon="4.524039413747">
        <ele>5.2</ele>
        <time>2019-05-30T12:15:11Z</time>
      </trkpt>
      <trkpt lat="51.197995440271" lon="4.524331858238">
        <ele>5</ele>
        <time>2019-05-30T12:15:18Z</time>
      </trkpt>
      <trkpt lat="51.197951770572" lon="4.524611143146">
        <ele>7.8</ele>
        <time>2019-05-30T12:15:25Z</time>
      </trkpt>
      <trkpt lat="51.197918745886" lon="4.524896127746">
        <ele>4.8</ele>
        <time>2019-05-30T12:15:32Z</time>
      </trkpt>
      <trkpt lat="51.197894354557" lon="4.525203324381">
        <ele>3</ele>
        <time>2019-05-30T12:15:39Z</time>
      </trkpt>
      <trkpt lat="51.197869627952" lon="4.525526446626">
        <ele>0</ele>
        <time>2019-05-30T12:15:47Z</time>
      </trkpt>
      <trkpt lat="51.197836351809" lon="4.5258320507">
        <ele>0</ele>
        <time>2019-05-30T12:15:54Z</time>
      </trkpt>
      <trkpt lat="51.197806847521" lon="4.526144276475">
        <ele>0</ele>
        <time>2019-05-30T12:16:01Z</time>
      </trkpt>
      <trkpt lat="51.19778430021" lon="4.526444180857">
        <ele>0</ele>
        <time>2019-05-30T12:16:08Z</time>
      </trkpt>
      <trkpt lat="51.197760663252" lon="4.52674735418">
        <ele>0</ele>
        <time>2019-05-30T12:16:15Z</time>
      </trkpt>
      <trkpt lat="51.197708192558" lon="4.527043486707">
        <ele>0</ele>
        <time>2019-05-30T12:16:22Z</time>
      </trkpt>
      <trkpt lat="51.19763342601" lon="4.527348420229">
        <ele>0</ele>
        <time>2019-05-30T12:16:29Z</time>
      </trkpt>
      <trkpt lat="51.197564023878" lon="4.527613455907">
        <ele>0</ele>
        <time>2019-05-30T12:16:36Z</time>
      </trkpt>
      <trkpt lat="51.197566538448" lon="4.527936159057">
        <ele>0.6</ele>
        <time>2019-05-30T12:16:44Z</time>
      </trkpt>
      <trkpt lat="51.197526221509" lon="4.528249558298">
        <ele>1.2</ele>
        <time>2019-05-30T12:16:52Z</time>
      </trkpt>
      <trkpt lat="51.197498980334" lon="4.528555581467">
        <ele>3.2</ele>
        <time>2019-05-30T12:17:00Z</time>
      </trkpt>
      <trkpt lat="51.197469224589" lon="4.528869232165">
        <ele>5</ele>
        <time>2019-05-30T12:17:08Z</time>
      </trkpt>
      <trkpt lat="51.19742806946" lon="4.529182379949">
        <ele>5.4</ele>
        <time>2019-05-30T12:17:16Z</time>
      </trkpt>
      <trkpt lat="51.197403342855" lon="4.529503239081">
        <ele>8.8</ele>
        <time>2019-05-30T12:17:25Z</time>
      </trkpt>
      <trkpt lat="51.197356739491" lon="4.529800964169">
        <ele>10.8</ele>
        <time>2019-05-30T12:17:33Z</time>
      </trkpt>
      <trkpt lat="51.197297395639" lon="4.530085362036">
        <ele>9.6</ele>
        <time>2019-05-30T12:17:41Z</time>
      </trkpt>
      <trkpt lat="51.197235034303" lon="4.530383673857">
        <ele>7</ele>
        <time>2019-05-30T12:17:49Z</time>
      </trkpt>
      <trkpt lat="51.197188179482" lon="4.530674693425">
        <ele>4.6</ele>
        <time>2019-05-30T12:17:57Z</time>
      </trkpt>
      <trkpt lat="51.197125734327" lon="4.530971328866">
        <ele>4.4</ele>
        <time>2019-05-30T12:18:04Z</time>
      </trkpt>
      <trkpt lat="51.197080974981" lon="4.531264192452">
        <ele>5.2</ele>
        <time>2019-05-30T12:18:11Z</time>
      </trkpt>
      <trkpt lat="51.197022888414" lon="4.531541633342">
        <ele>6</ele>
        <time>2019-05-30T12:18:18Z</time>
      </trkpt>
      <trkpt lat="51.196975027765" lon="4.531842208276">
        <ele>5.4</ele>
        <time>2019-05-30T12:18:26Z</time>
      </trkpt>
      <trkpt lat="51.196916354465" lon="4.532147477074">
        <ele>4.8</ele>
        <time>2019-05-30T12:18:34Z</time>
      </trkpt>
      <trkpt lat="51.196877127173" lon="4.532447716732">
        <ele>5.8</ele>
        <time>2019-05-30T12:18:41Z</time>
      </trkpt>
      <trkpt lat="51.196825913764" lon="4.53273203078">
        <ele>5.4</ele>
        <time>2019-05-30T12:18:48Z</time>
      </trkpt>
      <trkpt lat="51.196773778346" lon="4.533042915451">
        <ele>7.2</ele>
        <time>2019-05-30T12:18:56Z</time>
      </trkpt>
      <trkpt lat="51.19671141701" lon="4.533331420449">
        <ele>6.6</ele>
        <time>2019-05-30T12:19:03Z</time>
      </trkpt>
      <trkpt lat="51.196641595783" lon="4.53362218856">
        <ele>6.4</ele>
        <time>2019-05-30T12:19:10Z</time>
      </trkpt>
      <trkpt lat="51.196569930538" lon="4.533905329142">
        <ele>4.6</ele>
        <time>2019-05-30T12:19:17Z</time>
      </trkpt>
      <trkpt lat="51.19649097304" lon="4.534206155533">
        <ele>4</ele>
        <time>2019-05-30T12:19:25Z</time>
      </trkpt>
      <trkpt lat="51.196412266999" lon="4.534477896731">
        <ele>4</ele>
        <time>2019-05-30T12:19:32Z</time>
      </trkpt>
      <trkpt lat="51.196330794931" lon="4.534765312082">
        <ele>5</ele>
        <time>2019-05-30T12:19:39Z</time>
      </trkpt>
      <trkpt lat="51.196262230989" lon="4.535042333877">
        <ele>4.8</ele>
        <time>2019-05-30T12:19:46Z</time>
      </trkpt>
      <trkpt lat="51.196176987066" lon="4.535296556904">
        <ele>6</ele>
        <time>2019-05-30T12:19:53Z</time>
      </trkpt>
      <trkpt lat="51.196017647147" lon="4.535729314401">
        <ele>6.6</ele>
        <time>2019-05-30T12:20:05Z</time>
      </trkpt>
      <trkpt lat="51.195919411279" lon="4.535977753917">
        <ele>4.8</ele>
        <time>2019-05-30T12:20:13Z</time>
      </trkpt>
      <trkpt lat="51.195818325565" lon="4.536220158465">
        <ele>4.2</ele>
        <time>2019-05-30T12:20:21Z</time>
      </trkpt>
      <trkpt lat="51.195715563471" lon="4.536493073129">
        <ele>4.8</ele>
        <time>2019-05-30T12:20:29Z</time>
      </trkpt>
      <trkpt lat="51.195610789721" lon="4.536764059956">
        <ele>3.8</ele>
        <time>2019-05-30T12:20:37Z</time>
      </trkpt>
      <trkpt lat="51.195499058994" lon="4.537009062893">
        <ele>2.8</ele>
        <time>2019-05-30T12:20:44Z</time>
      </trkpt>
      <trkpt lat="51.195390261932" lon="4.537255155477">
        <ele>3.2</ele>
        <time>2019-05-30T12:20:52Z</time>
      </trkpt>
      <trkpt lat="51.195272747694" lon="4.537506612477">
        <ele>1.4</ele>
        <time>2019-05-30T12:20:59Z</time>
      </trkpt>
      <trkpt lat="51.1951616037" lon="4.537751783052">
        <ele>0</ele>
        <time>2019-05-30T12:21:06Z</time>
      </trkpt>
      <trkpt lat="51.195027074205" lon="4.537981866207">
        <ele>0</ele>
        <time>2019-05-30T12:21:13Z</time>
      </trkpt>
      <trkpt lat="51.194878966032" lon="4.538193173906">
        <ele>0</ele>
        <time>2019-05-30T12:21:21Z</time>
      </trkpt>
      <trkpt lat="51.194743849804" lon="4.538427448011">
        <ele>3.6</ele>
        <time>2019-05-30T12:21:29Z</time>
      </trkpt>
      <trkpt lat="51.194606805739" lon="4.538653926949">
        <ele>2.8</ele>
        <time>2019-05-30T12:21:37Z</time>
      </trkpt>
      <trkpt lat="51.194475461366" lon="4.538897421144">
        <ele>1.2</ele>
        <time>2019-05-30T12:21:45Z</time>
      </trkpt>
      <trkpt lat="51.194347218296" lon="4.539134377457">
        <ele>1.2</ele>
        <time>2019-05-30T12:21:53Z</time>
      </trkpt>
      <trkpt lat="51.194266165323" lon="4.539390109226">
        <ele>1.2</ele>
        <time>2019-05-30T12:22:00Z</time>
      </trkpt>
      <trkpt lat="51.194165498704" lon="4.539656234551">
        <ele>2.2</ele>
        <time>2019-05-30T12:22:07Z</time>
      </trkpt>
      <trkpt lat="51.194072962528" lon="4.539913055967">
        <ele>3.8</ele>
        <time>2019-05-30T12:22:14Z</time>
      </trkpt>
      <trkpt lat="51.193967015312" lon="4.540158813275">
        <ele>3.2</ele>
        <time>2019-05-30T12:22:21Z</time>
      </trkpt>
      <trkpt lat="51.193891997307" lon="4.54042912955">
        <ele>3.4</ele>
        <time>2019-05-30T12:22:28Z</time>
      </trkpt>
      <trkpt lat="51.19381044142" lon="4.540706905716">
        <ele>2.4</ele>
        <time>2019-05-30T12:22:35Z</time>
      </trkpt>
      <trkpt lat="51.193748750636" lon="4.541009743763">
        <ele>1.4</ele>
        <time>2019-05-30T12:22:43Z</time>
      </trkpt>
      <trkpt lat="51.193693178639" lon="4.541316353665">
        <ele>0</ele>
        <time>2019-05-30T12:22:51Z</time>
      </trkpt>
      <trkpt lat="51.193668284396" lon="4.541628076526">
        <ele>0</ele>
        <time>2019-05-30T12:22:59Z</time>
      </trkpt>
      <trkpt lat="51.193639199203" lon="4.541953042789">
        <ele>0</ele>
        <time>2019-05-30T12:23:07Z</time>
      </trkpt>
      <trkpt lat="51.193655208632" lon="4.542242218339">
        <ele>0</ele>
        <time>2019-05-30T12:23:14Z</time>
      </trkpt>
      <trkpt lat="51.193672642984" lon="4.542554108838">
        <ele>2</ele>
        <time>2019-05-30T12:23:22Z</time>
      </trkpt>
      <trkpt lat="51.19366711093" lon="4.542869855011">
        <ele>3.4</ele>
        <time>2019-05-30T12:23:30Z</time>
      </trkpt>
      <trkpt lat="51.193671469518" lon="4.543194988912">
        <ele>3.6</ele>
        <time>2019-05-30T12:23:38Z</time>
      </trkpt>
      <trkpt lat="51.193671637156" lon="4.543490450887">
        <ele>2.6</ele>
        <time>2019-05-30T12:23:45Z</time>
      </trkpt>
      <trkpt lat="51.193666105102" lon="4.543787673061">
        <ele>1.4</ele>
        <time>2019-05-30T12:23:52Z</time>
      </trkpt>
      <trkpt lat="51.193665350731" lon="4.544109035107">
        <ele>1.8</ele>
        <time>2019-05-30T12:24:00Z</time>
      </trkpt>
      <trkpt lat="51.193669374043" lon="4.544435174836">
        <ele>1</ele>
        <time>2019-05-30T12:24:08Z</time>
      </trkpt>
      <trkpt lat="51.193714301027" lon="4.544719488884">
        <ele>4.4</ele>
        <time>2019-05-30T12:24:15Z</time>
      </trkpt>
      <trkpt lat="51.193742799487" lon="4.545035737971">
        <ele>7.8</ele>
        <time>2019-05-30T12:24:23Z</time>
      </trkpt>
      <trkpt lat="51.193774734526" lon="4.545357602931">
        <ele>10.8</ele>
        <time>2019-05-30T12:24:31Z</time>
      </trkpt>
      <trkpt lat="51.193779931304" lon="4.545675696036">
        <ele>10</ele>
        <time>2019-05-30T12:24:39Z</time>
      </trkpt>
      <trkpt lat="51.193807591574" lon="4.545978701721">
        <ele>10.2</ele>
        <time>2019-05-30T12:24:46Z</time>
      </trkpt>
      <trkpt lat="51.193821673166" lon="4.546270894755">
        <ele>9</ele>
        <time>2019-05-30T12:24:53Z</time>
      </trkpt>
      <trkpt lat="51.193832988731" lon="4.546581779426">
        <ele>7.4</ele>
        <time>2019-05-30T12:25:01Z</time>
      </trkpt>
      <trkpt lat="51.193867857435" lon="4.546865506741">
        <ele>5</ele>
        <time>2019-05-30T12:25:08Z</time>
      </trkpt>
      <trkpt lat="51.193930889323" lon="4.547173541566">
        <ele>4.6</ele>
        <time>2019-05-30T12:25:16Z</time>
      </trkpt>
      <trkpt lat="51.193983192379" lon="4.547490545024">
        <ele>5.8</ele>
        <time>2019-05-30T12:25:24Z</time>
      </trkpt>
      <trkpt lat="51.194040608394" lon="4.547777038366">
        <ele>6</ele>
        <time>2019-05-30T12:25:31Z</time>
      </trkpt>
      <trkpt lat="51.194094168735" lon="4.548081720431">
        <ele>10.4</ele>
        <time>2019-05-30T12:25:39Z</time>
      </trkpt>
      <trkpt lat="51.19411554258" lon="4.54836678885">
        <ele>10.2</ele>
        <time>2019-05-30T12:25:46Z</time>
      </trkpt>
      <trkpt lat="51.194160888659" lon="4.548774316828">
        <ele>9.6</ele>
        <time>2019-05-30T12:25:56Z</time>
      </trkpt>
      <trkpt lat="51.19413146819" lon="4.549068772975">
        <ele>7.6</ele>
        <time>2019-05-30T12:26:03Z</time>
      </trkpt>
      <trkpt lat="51.194099952246" lon="4.549386363166">
        <ele>4.8</ele>
        <time>2019-05-30T12:26:11Z</time>
      </trkpt>
      <trkpt lat="51.194064077714" lon="4.549703785719">
        <ele>3.4</ele>
        <time>2019-05-30T12:26:19Z</time>
      </trkpt>
      <trkpt lat="51.194056282547" lon="4.549999918246">
        <ele>4.8</ele>
        <time>2019-05-30T12:26:27Z</time>
      </trkpt>
      <trkpt lat="51.194041362765" lon="4.550322956672">
        <ele>8</ele>
        <time>2019-05-30T12:26:35Z</time>
      </trkpt>
      <trkpt lat="51.194037339453" lon="4.550626381452">
        <ele>13.2</ele>
        <time>2019-05-30T12:26:43Z</time>
      </trkpt>
      <trkpt lat="51.193980929266" lon="4.550899715211">
        <ele>14.6</ele>
        <time>2019-05-30T12:26:50Z</time>
      </trkpt>
      <trkpt lat="51.193879675914" lon="4.55115544698">
        <ele>12.2</ele>
        <time>2019-05-30T12:26:57Z</time>
      </trkpt>
      <trkpt lat="51.193750259378" lon="4.551376561502">
        <ele>8</ele>
        <time>2019-05-30T12:27:03Z</time>
      </trkpt>
      <trkpt lat="51.193614807874" lon="4.551625420113">
        <ele>5</ele>
        <time>2019-05-30T12:27:10Z</time>
      </trkpt>
      <trkpt lat="51.193487151537" lon="4.551840583486">
        <ele>3.4</ele>
        <time>2019-05-30T12:27:17Z</time>
      </trkpt>
      <trkpt lat="51.193345581246" lon="4.552026913123">
        <ele>2.4</ele>
        <time>2019-05-30T12:27:24Z</time>
      </trkpt>
      <trkpt lat="51.193201161109" lon="4.552198071521">
        <ele>1.4</ele>
        <time>2019-05-30T12:27:31Z</time>
      </trkpt>
      <trkpt lat="51.193042324104" lon="4.55235154411">
        <ele>2.2</ele>
        <time>2019-05-30T12:27:38Z</time>
      </trkpt>
      <trkpt lat="51.192876530122" lon="4.552499652283">
        <ele>1.8</ele>
        <time>2019-05-30T12:27:45Z</time>
      </trkpt>
      <trkpt lat="51.192714759452" lon="4.552651280854">
        <ele>0</ele>
        <time>2019-05-30T12:27:52Z</time>
      </trkpt>
      <trkpt lat="51.192546534719" lon="4.552793102602">
        <ele>1.2</ele>
        <time>2019-05-30T12:27:59Z</time>
      </trkpt>
      <trkpt lat="51.192369257534" lon="4.55292989521">
        <ele>1.6</ele>
        <time>2019-05-30T12:28:06Z</time>
      </trkpt>
      <trkpt lat="51.192197847679" lon="4.553117398313">
        <ele>0</ele>
        <time>2019-05-30T12:28:14Z</time>
      </trkpt>
      <trkpt lat="51.19202090577" lon="4.553278246974">
        <ele>1.2</ele>
        <time>2019-05-30T12:28:21Z</time>
      </trkpt>
      <trkpt lat="51.191858464548" lon="4.55342275093">
        <ele>0</ele>
        <time>2019-05-30T12:28:28Z</time>
      </trkpt>
      <trkpt lat="51.19169484986" lon="4.553597010631">
        <ele>0</ele>
        <time>2019-05-30T12:28:36Z</time>
      </trkpt>
      <trkpt lat="51.191528972059" lon="4.553746124632">
        <ele>0</ele>
        <time>2019-05-30T12:28:44Z</time>
      </trkpt>
      <trkpt lat="51.191364938276" lon="4.553921725437">
        <ele>2.2</ele>
        <time>2019-05-30T12:28:51Z</time>
      </trkpt>
      <trkpt lat="51.191205933633" lon="4.554101936287">
        <ele>4.8</ele>
        <time>2019-05-30T12:28:58Z</time>
      </trkpt>
      <trkpt lat="51.191050784664" lon="4.554309136855">
        <ele>5.4</ele>
        <time>2019-05-30T12:29:06Z</time>
      </trkpt>
      <trkpt lat="51.190914997884" lon="4.554507536428">
        <ele>5.8</ele>
        <time>2019-05-30T12:29:13Z</time>
      </trkpt>
      <trkpt lat="51.190772170308" lon="4.554695207169">
        <ele>4.4</ele>
        <time>2019-05-30T12:29:20Z</time>
      </trkpt>
      <trkpt lat="51.190642753772" lon="4.554898971158">
        <ele>1.4</ele>
        <time>2019-05-30T12:29:27Z</time>
      </trkpt>
      <trkpt lat="51.190519036928" lon="4.555120420956">
        <ele>0</ele>
        <time>2019-05-30T12:29:34Z</time>
      </trkpt>
      <trkpt lat="51.190400265405" lon="4.555344804419">
        <ele>0</ele>
        <time>2019-05-30T12:29:41Z</time>
      </trkpt>
      <trkpt lat="51.190277135294" lon="4.555579581438">
        <ele>0</ele>
        <time>2019-05-30T12:29:49Z</time>
      </trkpt>
      <trkpt lat="51.190140175048" lon="4.555776639907">
        <ele>0</ele>
        <time>2019-05-30T12:29:56Z</time>
      </trkpt>
      <trkpt lat="51.190013943634" lon="4.556029689468">
        <ele>0</ele>
        <time>2019-05-30T12:30:05Z</time>
      </trkpt>
      <trkpt lat="51.189907242047" lon="4.556263544478">
        <ele>0</ele>
        <time>2019-05-30T12:30:12Z</time>
      </trkpt>
      <trkpt lat="51.189827446359" lon="4.556533525477">
        <ele>0</ele>
        <time>2019-05-30T12:30:19Z</time>
      </trkpt>
      <trkpt lat="51.189699622384" lon="4.556762770442">
        <ele>0</ele>
        <time>2019-05-30T12:30:26Z</time>
      </trkpt>
      <trkpt lat="51.189573810065" lon="4.557018334573">
        <ele>1.8</ele>
        <time>2019-05-30T12:30:34Z</time>
      </trkpt>
      <trkpt lat="51.189449422669" lon="4.557229558453">
        <ele>0</ele>
        <time>2019-05-30T12:30:41Z</time>
      </trkpt>
      <trkpt lat="51.189355713027" lon="4.557481015453">
        <ele>0.2</ele>
        <time>2019-05-30T12:30:49Z</time>
      </trkpt>
      <trkpt lat="51.189242138282" lon="4.55773272391">
        <ele>0</ele>
        <time>2019-05-30T12:30:57Z</time>
      </trkpt>
      <trkpt lat="51.189097718145" lon="4.557961214504">
        <ele>0</ele>
        <time>2019-05-30T12:31:04Z</time>
      </trkpt>
      <trkpt lat="51.188966122315" lon="4.558168834167">
        <ele>0.2</ele>
        <time>2019-05-30T12:31:11Z</time>
      </trkpt>
      <trkpt lat="51.188853050484" lon="4.558404533195">
        <ele>0.8</ele>
        <time>2019-05-30T12:31:18Z</time>
      </trkpt>
      <trkpt lat="51.188754227883" lon="4.558669736511">
        <ele>1</ele>
        <time>2019-05-30T12:31:26Z</time>
      </trkpt>
      <trkpt lat="51.188656075834" lon="4.55891792457">
        <ele>0</ele>
        <time>2019-05-30T12:31:34Z</time>
      </trkpt>
      <trkpt lat="51.188572424472" lon="4.559230150345">
        <ele>0</ele>
        <time>2019-05-30T12:31:42Z</time>
      </trkpt>
      <trkpt lat="51.188489359843" lon="4.559520415542">
        <ele>0</ele>
        <time>2019-05-30T12:31:50Z</time>
      </trkpt>
      <trkpt lat="51.188419538616" lon="4.559813027671">
        <ele>0</ele>
        <time>2019-05-30T12:31:58Z</time>
      </trkpt>
      <trkpt lat="51.188359859488" lon="4.560099269556">
        <ele>0</ele>
        <time>2019-05-30T12:32:06Z</time>
      </trkpt>
      <trkpt lat="51.188310909192" lon="4.560399928309">
        <ele>0</ele>
        <time>2019-05-30T12:32:14Z</time>
      </trkpt>
      <trkpt lat="51.188258773774" lon="4.560692540438">
        <ele>0.4</ele>
        <time>2019-05-30T12:32:22Z</time>
      </trkpt>
      <trkpt lat="51.188190545108" lon="4.560985152567">
        <ele>0</ele>
        <time>2019-05-30T12:32:30Z</time>
      </trkpt>
      <trkpt lat="51.188142852097" lon="4.561280949818">
        <ele>0</ele>
        <time>2019-05-30T12:32:38Z</time>
      </trkpt>
      <trkpt lat="51.188123825184" lon="4.561569622454">
        <ele>3.6</ele>
        <time>2019-05-30T12:32:45Z</time>
      </trkpt>
      <trkpt lat="51.188093398887" lon="4.561859636194">
        <ele>4</ele>
        <time>2019-05-30T12:32:52Z</time>
      </trkpt>
      <trkpt lat="51.188043442763" lon="4.562147135364">
        <ele>3</ele>
        <time>2019-05-30T12:32:59Z</time>
      </trkpt>
      <trkpt lat="51.187991139707" lon="4.562428096652">
        <ele>2</ele>
        <time>2019-05-30T12:33:06Z</time>
      </trkpt>
      <trkpt lat="51.187955432813" lon="4.562722217523">
        <ele>1.6</ele>
        <time>2019-05-30T12:33:13Z</time>
      </trkpt>
      <trkpt lat="51.187921569937" lon="4.563008124132">
        <ele>1</ele>
        <time>2019-05-30T12:33:20Z</time>
      </trkpt>
      <trkpt lat="51.187849988511" lon="4.563280032968">
        <ele>0</ele>
        <time>2019-05-30T12:33:27Z</time>
      </trkpt>
      <trkpt lat="51.187818891662" lon="4.563562167722">
        <ele>0</ele>
        <time>2019-05-30T12:33:34Z</time>
      </trkpt>
      <trkpt lat="51.187801373491" lon="4.563844218657">
        <ele>0.4</ele>
        <time>2019-05-30T12:33:41Z</time>
      </trkpt>
      <trkpt lat="51.187752171738" lon="4.564141440831">
        <ele>0</ele>
        <time>2019-05-30T12:33:49Z</time>
      </trkpt>
      <trkpt lat="51.187763654941" lon="4.564449475656">
        <ele>1.6</ele>
        <time>2019-05-30T12:33:57Z</time>
      </trkpt>
      <trkpt lat="51.187706993297" lon="4.564763377811">
        <ele>2</ele>
        <time>2019-05-30T12:34:05Z</time>
      </trkpt>
      <trkpt lat="51.187685870909" lon="4.565073508111">
        <ele>1.6</ele>
        <time>2019-05-30T12:34:12Z</time>
      </trkpt>
      <trkpt lat="51.187685619452" lon="4.565378609271">
        <ele>2.4</ele>
        <time>2019-05-30T12:34:19Z</time>
      </trkpt>
      <trkpt lat="51.187672543688" lon="4.565678094558">
        <ele>3.8</ele>
        <time>2019-05-30T12:34:26Z</time>
      </trkpt>
      <trkpt lat="51.187655779888" lon="4.565961738054">
        <ele>5.2</ele>
        <time>2019-05-30T12:34:33Z</time>
      </trkpt>
      <trkpt lat="51.187641698296" lon="4.566284525023">
        <ele>5.8</ele>
        <time>2019-05-30T12:34:41Z</time>
      </trkpt>
      <trkpt lat="51.187615211492" lon="4.566596164065">
        <ele>4.6</ele>
        <time>2019-05-30T12:34:49Z</time>
      </trkpt>
      <trkpt lat="51.187584282281" lon="4.566897744827">
        <ele>1.8</ele>
        <time>2019-05-30T12:34:57Z</time>
      </trkpt>
      <trkpt lat="51.187554526536" lon="4.567208629498">
        <ele>1</ele>
        <time>2019-05-30T12:35:05Z</time>
      </trkpt>
      <trkpt lat="51.187535918718" lon="4.567520436178">
        <ele>1</ele>
        <time>2019-05-30T12:35:13Z</time>
      </trkpt>
      <trkpt lat="51.187515466882" lon="4.567829225374">
        <ele>1</ele>
        <time>2019-05-30T12:35:21Z</time>
      </trkpt>
      <trkpt lat="51.187470539898" lon="4.568106666264">
        <ele>2.6</ele>
        <time>2019-05-30T12:35:29Z</time>
      </trkpt>
      <trkpt lat="51.18731865987" lon="4.56823440642">
        <ele>3</ele>
        <time>2019-05-30T12:35:38Z</time>
      </trkpt>
      <trkpt lat="51.187133000785" lon="4.568177074224">
        <ele>3.4</ele>
        <time>2019-05-30T12:35:45Z</time>
      </trkpt>
      <trkpt lat="51.186948934261" lon="4.568063080384">
        <ele>5</ele>
        <time>2019-05-30T12:35:53Z</time>
      </trkpt>
      <trkpt lat="51.18675791076" lon="4.567959563919">
        <ele>6.8</ele>
        <time>2019-05-30T12:36:01Z</time>
      </trkpt>
      <trkpt lat="51.186586417086" lon="4.567858813481">
        <ele>6.8</ele>
        <time>2019-05-30T12:36:08Z</time>
      </trkpt>
      <trkpt lat="51.186421461294" lon="4.567729983678">
        <ele>6.2</ele>
        <time>2019-05-30T12:36:16Z</time>
      </trkpt>
      <trkpt lat="51.186254242389" lon="4.567600231866">
        <ele>6.2</ele>
        <time>2019-05-30T12:36:24Z</time>
      </trkpt>
      <trkpt lat="51.186086269113" lon="4.567457991023">
        <ele>5.2</ele>
        <time>2019-05-30T12:36:32Z</time>
      </trkpt>
      <trkpt lat="51.185900861485" lon="4.56735514511">
        <ele>5</ele>
        <time>2019-05-30T12:36:40Z</time>
      </trkpt>
      <trkpt lat="51.185727942888" lon="4.567242995288">
        <ele>5</ele>
        <time>2019-05-30T12:36:47Z</time>
      </trkpt>
      <trkpt lat="51.185558963784" lon="4.567071250157">
        <ele>6.8</ele>
        <time>2019-05-30T12:36:55Z</time>
      </trkpt>
      <trkpt lat="51.185494674611" lon="4.56691928631">
        <ele>6.4</ele>
        <time>2019-05-30T12:37:00Z</time>
      </trkpt>
      <trkpt lat="51.185629287925" lon="4.566702865652">
        <ele>7.4</ele>
        <time>2019-05-30T12:37:08Z</time>
      </trkpt>
      <trkpt lat="51.185782089962" lon="4.566522319526">
        <ele>10.8</ele>
        <time>2019-05-30T12:37:16Z</time>
      </trkpt>
      <trkpt lat="51.185937155112" lon="4.566337666269">
        <ele>13.4</ele>
        <time>2019-05-30T12:37:24Z</time>
      </trkpt>
      <trkpt lat="51.186082161982" lon="4.566119150136">
        <ele>12.2</ele>
        <time>2019-05-30T12:37:32Z</time>
      </trkpt>
      <trkpt lat="51.18627092237" lon="4.565908764446">
        <ele>15.6</ele>
        <time>2019-05-30T12:37:42Z</time>
      </trkpt>
      <trkpt lat="51.186412911756" lon="4.565726206664">
        <ele>15.2</ele>
        <time>2019-05-30T12:37:50Z</time>
      </trkpt>
      <trkpt lat="51.186574850064" lon="4.565555634999">
        <ele>14</ele>
        <time>2019-05-30T12:37:58Z</time>
      </trkpt>
      <trkpt lat="51.18673025049" lon="4.565380453289">
        <ele>13.6</ele>
        <time>2019-05-30T12:38:06Z</time>
      </trkpt>
      <trkpt lat="51.186890009504" lon="4.56517836568">
        <ele>15.6</ele>
        <time>2019-05-30T12:38:15Z</time>
      </trkpt>
      <trkpt lat="51.187039877876" lon="4.564989353835">
        <ele>15.8</ele>
        <time>2019-05-30T12:38:23Z</time>
      </trkpt>
      <trkpt lat="51.187189494791" lon="4.564783745828">
        <ele>15.2</ele>
        <time>2019-05-30T12:38:31Z</time>
      </trkpt>
      <trkpt lat="51.187348080339" lon="4.564587274092">
        <ele>13.4</ele>
        <time>2019-05-30T12:38:39Z</time>
      </trkpt>
      <trkpt lat="51.187504821869" lon="4.564427012164">
        <ele>13.2</ele>
        <time>2019-05-30T12:38:46Z</time>
      </trkpt>
      <trkpt lat="51.187656785716" lon="4.564246130762">
        <ele>12</ele>
        <time>2019-05-30T12:38:54Z</time>
      </trkpt>
      <trkpt lat="51.187753177566" lon="4.563987130052">
        <ele>11.4</ele>
        <time>2019-05-30T12:39:02Z</time>
      </trkpt>
      <trkpt lat="51.187852335443" lon="4.563745396056">
        <ele>8.4</ele>
        <time>2019-05-30T12:39:11Z</time>
      </trkpt>
      <trkpt lat="51.187881839731" lon="4.56369476938">
        <ele>8</ele>
        <time>2019-05-30T12:39:14Z</time>
      </trkpt>
      <trkpt lat="51.188068504644" lon="4.563599718634">
        <ele>4.4</ele>
        <time>2019-05-30T12:39:23Z</time>
      </trkpt>
      <trkpt lat="51.188221641957" lon="4.563411964074">
        <ele>5.6</ele>
        <time>2019-05-30T12:39:31Z</time>
      </trkpt>
      <trkpt lat="51.188389279957" lon="4.563246253911">
        <ele>7.4</ele>
        <time>2019-05-30T12:39:38Z</time>
      </trkpt>
      <trkpt lat="51.188536130845" lon="4.563071491296">
        <ele>7.2</ele>
        <time>2019-05-30T12:39:45Z</time>
      </trkpt>
      <trkpt lat="51.188684406656" lon="4.562878456139">
        <ele>7.8</ele>
        <time>2019-05-30T12:39:52Z</time>
      </trkpt>
      <trkpt lat="51.188846093507" lon="4.562711823967">
        <ele>10.4</ele>
        <time>2019-05-30T12:40:00Z</time>
      </trkpt>
      <trkpt lat="51.189005684883" lon="4.562570421314">
        <ele>15.2</ele>
        <time>2019-05-30T12:40:07Z</time>
      </trkpt>
      <trkpt lat="51.189158989834" lon="4.562376967062">
        <ele>19.8</ele>
        <time>2019-05-30T12:40:16Z</time>
      </trkpt>
      <trkpt lat="51.189307517102" lon="4.562201450076">
        <ele>16.4</ele>
        <time>2019-05-30T12:40:25Z</time>
      </trkpt>
      <trkpt lat="51.189457553112" lon="4.56203263861">
        <ele>16</ele>
        <time>2019-05-30T12:40:33Z</time>
      </trkpt>
      <trkpt lat="51.189587807838" lon="4.56180045998">
        <ele>16</ele>
        <time>2019-05-30T12:40:43Z</time>
      </trkpt>
      <trkpt lat="51.1897385144" lon="4.561635671826">
        <ele>16.8</ele>
        <time>2019-05-30T12:40:52Z</time>
      </trkpt>
      <trkpt lat="51.189891567894" lon="4.561480774314">
        <ele>16.6</ele>
        <time>2019-05-30T12:41:00Z</time>
      </trkpt>
      <trkpt lat="51.190058786799" lon="4.56132017711">
        <ele>17</ele>
        <time>2019-05-30T12:41:08Z</time>
      </trkpt>
      <trkpt lat="51.190221647116" lon="4.561154718404">
        <ele>12.8</ele>
        <time>2019-05-30T12:41:16Z</time>
      </trkpt>
      <trkpt lat="51.190260622951" lon="4.560954474813">
        <ele>11.6</ele>
        <time>2019-05-30T12:41:21Z</time>
      </trkpt>
      <trkpt lat="51.190188873887" lon="4.560650044205">
        <ele>9.6</ele>
        <time>2019-05-30T12:41:28Z</time>
      </trkpt>
      <trkpt lat="51.190100696299" lon="4.560391378771">
        <ele>8</ele>
        <time>2019-05-30T12:41:35Z</time>
      </trkpt>
      <trkpt lat="51.190008998313" lon="4.560110082207">
        <ele>10</ele>
        <time>2019-05-30T12:41:43Z</time>
      </trkpt>
      <trkpt lat="51.189882096347" lon="4.559910509168">
        <ele>12.8</ele>
        <time>2019-05-30T12:41:51Z</time>
      </trkpt>
      <trkpt lat="51.189752512173" lon="4.559663410756">
        <ele>17</ele>
        <time>2019-05-30T12:41:58Z</time>
      </trkpt>
      <trkpt lat="51.189629968795" lon="4.559449169392">
        <ele>22.8</ele>
        <time>2019-05-30T12:42:04Z</time>
      </trkpt>
      <trkpt lat="51.189518321887" lon="4.559179188393">
        <ele>19.6</ele>
        <time>2019-05-30T12:42:12Z</time>
      </trkpt>
      <trkpt lat="51.189423941693" lon="4.558919014217">
        <ele>14</ele>
        <time>2019-05-30T12:42:19Z</time>
      </trkpt>
      <trkpt lat="51.18931606664" lon="4.558679208058">
        <ele>10</ele>
        <time>2019-05-30T12:42:26Z</time>
      </trkpt>
      <trkpt lat="51.189230068346" lon="4.558487011091">
        <ele>6.6</ele>
        <time>2019-05-30T12:42:32Z</time>
      </trkpt>
      <trkpt lat="51.189253621485" lon="4.558428337791">
        <ele>7</ele>
        <time>2019-05-30T12:42:34Z</time>
      </trkpt>
      <trkpt lat="51.189324029445" lon="4.558413082733">
        <ele>7.6</ele>
        <time>2019-05-30T12:42:37Z</time>
      </trkpt>
      <trkpt lat="51.189382116012" lon="4.558363126609">
        <ele>0</ele>
        <time>2019-05-30T12:43:24Z</time>
      </trkpt>
      <trkpt lat="51.189372812103" lon="4.558347033361">
        <ele>0</ele>
        <time>2019-05-30T12:43:25Z</time>
      </trkpt>
      <trkpt lat="51.189284802153" lon="4.558179898275">
        <ele>0</ele>
        <time>2019-05-30T12:43:32Z</time>
      </trkpt>
      <trkpt lat="51.18916435425" lon="4.558159278801">
        <ele>1</ele>
        <time>2019-05-30T12:43:38Z</time>
      </trkpt>
      <trkpt lat="51.189169718666" lon="4.557992227534">
        <ele>8.6</ele>
        <time>2019-05-30T12:47:38Z</time>
      </trkpt>
      <trkpt lat="51.189301649772" lon="4.55775954599">
        <ele>9.2</ele>
        <time>2019-05-30T12:47:47Z</time>
      </trkpt>
      <trkpt lat="51.189365938945" lon="4.557457713771">
        <ele>8</ele>
        <time>2019-05-30T12:47:55Z</time>
      </trkpt>
      <trkpt lat="51.189481022432" lon="4.557220841277">
        <ele>9.4</ele>
        <time>2019-05-30T12:48:02Z</time>
      </trkpt>
      <trkpt lat="51.189601218878" lon="4.556972150304">
        <ele>12.8</ele>
        <time>2019-05-30T12:48:09Z</time>
      </trkpt>
      <trkpt lat="51.189721163867" lon="4.556741312778">
        <ele>13.6</ele>
        <time>2019-05-30T12:48:16Z</time>
      </trkpt>
      <trkpt lat="51.189847730557" lon="4.55650477556">
        <ele>12.6</ele>
        <time>2019-05-30T12:48:23Z</time>
      </trkpt>
      <trkpt lat="51.18991285792" lon="4.556375107567">
        <ele>12.6</ele>
        <time>2019-05-30T12:48:28Z</time>
      </trkpt>
      <trkpt lat="51.189915707766" lon="4.556309980204">
        <ele>16</ele>
        <time>2019-05-30T12:48:37Z</time>
      </trkpt>
      <trkpt lat="51.18995225285" lon="4.556254240569">
        <ele>16.2</ele>
        <time>2019-05-30T12:48:40Z</time>
      </trkpt>
      <trkpt lat="51.190114526434" lon="4.555951067246">
        <ele>17</ele>
        <time>2019-05-30T12:48:49Z</time>
      </trkpt>
      <trkpt lat="51.190238410916" lon="4.555741352108">
        <ele>17</ele>
        <time>2019-05-30T12:48:55Z</time>
      </trkpt>
      <trkpt lat="51.190360367561" lon="4.55552409326">
        <ele>16.6</ele>
        <time>2019-05-30T12:49:02Z</time>
      </trkpt>
      <trkpt lat="51.19047863617" lon="4.555278838866">
        <ele>18.6</ele>
        <time>2019-05-30T12:49:10Z</time>
      </trkpt>
      <trkpt lat="51.190600257539" lon="4.555042301648">
        <ele>17.6</ele>
        <time>2019-05-30T12:49:17Z</time>
      </trkpt>
      <trkpt lat="51.190728919704" lon="4.554821103307">
        <ele>15.4</ele>
        <time>2019-05-30T12:49:24Z</time>
      </trkpt>
      <trkpt lat="51.190858839154" lon="4.554595043464">
        <ele>15</ele>
        <time>2019-05-30T12:49:32Z</time>
      </trkpt>
      <trkpt lat="51.191003678386" lon="4.554377030245">
        <ele>12.4</ele>
        <time>2019-05-30T12:49:40Z</time>
      </trkpt>
      <trkpt lat="51.191168131264" lon="4.554175864645">
        <ele>10.4</ele>
        <time>2019-05-30T12:49:48Z</time>
      </trkpt>
      <trkpt lat="51.191337110368" lon="4.554038736761">
        <ele>9.6</ele>
        <time>2019-05-30T12:49:56Z</time>
      </trkpt>
      <trkpt lat="51.191489577129" lon="4.553844192862">
        <ele>9.6</ele>
        <time>2019-05-30T12:50:03Z</time>
      </trkpt>
      <trkpt lat="51.191651347799" lon="4.553699688906">
        <ele>9.8</ele>
        <time>2019-05-30T12:50:10Z</time>
      </trkpt>
      <trkpt lat="51.191830552821" lon="4.553536828589">
        <ele>10.6</ele>
        <time>2019-05-30T12:50:18Z</time>
      </trkpt>
      <trkpt lat="51.191986456161" lon="4.553386038208">
        <ele>10.8</ele>
        <time>2019-05-30T12:50:25Z</time>
      </trkpt>
      <trkpt lat="51.192136324533" lon="4.553225021909">
        <ele>11.4</ele>
        <time>2019-05-30T12:50:32Z</time>
      </trkpt>
      <trkpt lat="51.192286779638" lon="4.553049840199">
        <ele>12</ele>
        <time>2019-05-30T12:50:39Z</time>
      </trkpt>
      <trkpt lat="51.192438827304" lon="4.552887231339">
        <ele>13.4</ele>
        <time>2019-05-30T12:50:46Z</time>
      </trkpt>
      <trkpt lat="51.19260596239" lon="4.55272872961">
        <ele>15</ele>
        <time>2019-05-30T12:50:54Z</time>
      </trkpt>
      <trkpt lat="51.192780389729" lon="4.55257114989">
        <ele>15</ele>
        <time>2019-05-30T12:51:02Z</time>
      </trkpt>
      <trkpt lat="51.192935957793" lon="4.552414156903">
        <ele>15.6</ele>
        <time>2019-05-30T12:51:09Z</time>
      </trkpt>
      <trkpt lat="51.193112983521" lon="4.552251212767">
        <ele>15.8</ele>
        <time>2019-05-30T12:51:17Z</time>
      </trkpt>
      <trkpt lat="51.193285399204" lon="4.552097069626">
        <ele>14</ele>
        <time>2019-05-30T12:51:26Z</time>
      </trkpt>
      <trkpt lat="51.193453623937" lon="4.551938567897">
        <ele>12.8</ele>
        <time>2019-05-30T12:51:34Z</time>
      </trkpt>
      <trkpt lat="51.193600139549" lon="4.551727260198">
        <ele>12</ele>
        <time>2019-05-30T12:51:42Z</time>
      </trkpt>
      <trkpt lat="51.193712959923" lon="4.551483514546">
        <ele>12.6</ele>
        <time>2019-05-30T12:51:49Z</time>
      </trkpt>
      <trkpt lat="51.193812536895" lon="4.551228788605">
        <ele>13.8</ele>
        <time>2019-05-30T12:51:56Z</time>
      </trkpt>
      <trkpt lat="51.193899038103" lon="4.550970709904">
        <ele>14.4</ele>
        <time>2019-05-30T12:52:03Z</time>
      </trkpt>
      <trkpt lat="51.193984365845" lon="4.550687150227">
        <ele>12.6</ele>
        <time>2019-05-30T12:52:11Z</time>
      </trkpt>
      <trkpt lat="51.194046391905" lon="4.550414067925">
        <ele>11.6</ele>
        <time>2019-05-30T12:52:18Z</time>
      </trkpt>
      <trkpt lat="51.194082350256" lon="4.550109721136">
        <ele>12.2</ele>
        <time>2019-05-30T12:52:26Z</time>
      </trkpt>
      <trkpt lat="51.194111854544" lon="4.54979338823">
        <ele>10.8</ele>
        <time>2019-05-30T12:52:35Z</time>
      </trkpt>
      <trkpt lat="51.194142280841" lon="4.549487951794">
        <ele>8.2</ele>
        <time>2019-05-30T12:52:43Z</time>
      </trkpt>
      <trkpt lat="51.194175305527" lon="4.549183102091">
        <ele>7</ele>
        <time>2019-05-30T12:52:51Z</time>
      </trkpt>
      <trkpt lat="51.19420941986" lon="4.548870289583">
        <ele>7.2</ele>
        <time>2019-05-30T12:52:59Z</time>
      </trkpt>
      <trkpt lat="51.194208078756" lon="4.548683373213">
        <ele>7.6</ele>
        <time>2019-05-30T12:53:04Z</time>
      </trkpt>
      <trkpt lat="51.194182011047" lon="4.548499725784">
        <ele>7</ele>
        <time>2019-05-30T12:53:25Z</time>
      </trkpt>
      <trkpt lat="51.194178239192" lon="4.548478687215">
        <ele>7.2</ele>
        <time>2019-05-30T12:53:26Z</time>
      </trkpt>
      <trkpt lat="51.194155440424" lon="4.548183392878">
        <ele>8.4</ele>
        <time>2019-05-30T12:53:34Z</time>
      </trkpt>
      <trkpt lat="51.194102802092" lon="4.547870831827">
        <ele>7.8</ele>
        <time>2019-05-30T12:53:42Z</time>
      </trkpt>
      <trkpt lat="51.194034992521" lon="4.547588529435">
        <ele>9.6</ele>
        <time>2019-05-30T12:53:49Z</time>
      </trkpt>
      <trkpt lat="51.193962489086" lon="4.547299186247">
        <ele>9</ele>
        <time>2019-05-30T12:53:56Z</time>
      </trkpt>
      <trkpt lat="51.19390012775" lon="4.547004143367">
        <ele>10</ele>
        <time>2019-05-30T12:54:03Z</time>
      </trkpt>
      <trkpt lat="51.193851009816" lon="4.546714045808">
        <ele>10.6</ele>
        <time>2019-05-30T12:54:10Z</time>
      </trkpt>
      <trkpt lat="51.193817901311" lon="4.546414225245">
        <ele>9.6</ele>
        <time>2019-05-30T12:54:17Z</time>
      </trkpt>
      <trkpt lat="51.193794431991" lon="4.546093701389">
        <ele>7.8</ele>
        <time>2019-05-30T12:54:25Z</time>
      </trkpt>
      <trkpt lat="51.193782948788" lon="4.545804274382">
        <ele>7.8</ele>
        <time>2019-05-30T12:54:32Z</time>
      </trkpt>
      <trkpt lat="51.193766352626" lon="4.545514931194">
        <ele>7.6</ele>
        <time>2019-05-30T12:54:39Z</time>
      </trkpt>
      <trkpt lat="51.193754115052" lon="4.545229527499">
        <ele>8.2</ele>
        <time>2019-05-30T12:54:46Z</time>
      </trkpt>
      <trkpt lat="51.193730729551" lon="4.544605075949">
        <ele>8</ele>
        <time>2019-05-30T12:55:02Z</time>
      </trkpt>
      <trkpt lat="51.193719833081" lon="4.54429067088">
        <ele>7.6</ele>
        <time>2019-05-30T12:55:10Z</time>
      </trkpt>
      <trkpt lat="51.193718575796" lon="4.543965956074">
        <ele>8.4</ele>
        <time>2019-05-30T12:55:18Z</time>
      </trkpt>
      <trkpt lat="51.193712121733" lon="4.543670997013">
        <ele>7.8</ele>
        <time>2019-05-30T12:55:25Z</time>
      </trkpt>
      <trkpt lat="51.193716061226" lon="4.543384000757">
        <ele>8.2</ele>
        <time>2019-05-30T12:55:32Z</time>
      </trkpt>
      <trkpt lat="51.193708517516" lon="4.543097591234">
        <ele>8</ele>
        <time>2019-05-30T12:55:39Z</time>
      </trkpt>
      <trkpt lat="51.193713881932" lon="4.542789640228">
        <ele>7.6</ele>
        <time>2019-05-30T12:55:47Z</time>
      </trkpt>
      <trkpt lat="51.193702985462" lon="4.542484539068">
        <ele>8.2</ele>
        <time>2019-05-30T12:55:55Z</time>
      </trkpt>
      <trkpt lat="51.193709271887" lon="4.542163512298">
        <ele>8.8</ele>
        <time>2019-05-30T12:56:03Z</time>
      </trkpt>
      <trkpt lat="51.193721006547" lon="4.541840390053">
        <ele>8.8</ele>
        <time>2019-05-30T12:56:11Z</time>
      </trkpt>
      <trkpt lat="51.193753947414" lon="4.541529924477">
        <ele>7.8</ele>
        <time>2019-05-30T12:56:19Z</time>
      </trkpt>
      <trkpt lat="51.193788397023" lon="4.541244604601">
        <ele>7.8</ele>
        <time>2019-05-30T12:56:26Z</time>
      </trkpt>
      <trkpt lat="51.193819829148" lon="4.540960039096">
        <ele>9</ele>
        <time>2019-05-30T12:56:33Z</time>
      </trkpt>
      <trkpt lat="51.193868527987" lon="4.540682765844">
        <ele>10.8</ele>
        <time>2019-05-30T12:56:40Z</time>
      </trkpt>
      <trkpt lat="51.19393197897" lon="4.54041488032">
        <ele>10.8</ele>
        <time>2019-05-30T12:56:47Z</time>
      </trkpt>
      <trkpt lat="51.194012864305" lon="4.540140456914">
        <ele>10.4</ele>
        <time>2019-05-30T12:56:55Z</time>
      </trkpt>
      <trkpt lat="51.19410632249" lon="4.539885898611">
        <ele>9</ele>
        <time>2019-05-30T12:57:03Z</time>
      </trkpt>
      <trkpt lat="51.194219310502" lon="4.539639303113">
        <ele>8.6</ele>
        <time>2019-05-30T12:57:11Z</time>
      </trkpt>
      <trkpt lat="51.194336154188" lon="4.539414752012">
        <ele>8.6</ele>
        <time>2019-05-30T12:57:19Z</time>
      </trkpt>
      <trkpt lat="51.19446842057" lon="4.539192128748">
        <ele>9.2</ele>
        <time>2019-05-30T12:57:27Z</time>
      </trkpt>
      <trkpt lat="51.194609655585" lon="4.53896984076">
        <ele>8.4</ele>
        <time>2019-05-30T12:57:35Z</time>
      </trkpt>
      <trkpt lat="51.194738904483" lon="4.538765406219">
        <ele>8.4</ele>
        <time>2019-05-30T12:57:43Z</time>
      </trkpt>
      <trkpt lat="51.194859603843" lon="4.538521828205">
        <ele>9.2</ele>
        <time>2019-05-30T12:57:51Z</time>
      </trkpt>
      <trkpt lat="51.194994217157" lon="4.538285793901">
        <ele>9.4</ele>
        <time>2019-05-30T12:57:59Z</time>
      </trkpt>
      <trkpt lat="51.195122711684" lon="4.538054285823">
        <ele>10.2</ele>
        <time>2019-05-30T12:58:07Z</time>
      </trkpt>
      <trkpt lat="51.195252044401" lon="4.537807857963">
        <ele>10.2</ele>
        <time>2019-05-30T12:58:15Z</time>
      </trkpt>
      <trkpt lat="51.195369893915" lon="4.537568303261">
        <ele>10.2</ele>
        <time>2019-05-30T12:58:23Z</time>
      </trkpt>
      <trkpt lat="51.195492018198" lon="4.537313744958">
        <ele>12.4</ele>
        <time>2019-05-30T12:58:32Z</time>
      </trkpt>
      <trkpt lat="51.195604419477" lon="4.537059857207">
        <ele>13.2</ele>
        <time>2019-05-30T12:58:40Z</time>
      </trkpt>
      <trkpt lat="51.19571816186" lon="4.53682155979">
        <ele>12.6</ele>
        <time>2019-05-30T12:58:47Z</time>
      </trkpt>
      <trkpt lat="51.195819834307" lon="4.536563648727">
        <ele>12.2</ele>
        <time>2019-05-30T12:58:55Z</time>
      </trkpt>
      <trkpt lat="51.195923853686" lon="4.536311269718">
        <ele>11.6</ele>
        <time>2019-05-30T12:59:03Z</time>
      </trkpt>
      <trkpt lat="51.196022005735" lon="4.536053274836">
        <ele>11.4</ele>
        <time>2019-05-30T12:59:11Z</time>
      </trkpt>
      <trkpt lat="51.196116050653" lon="4.535796704877">
        <ele>11.4</ele>
        <time>2019-05-30T12:59:19Z</time>
      </trkpt>
      <trkpt lat="51.19620850301" lon="4.535528148801">
        <ele>12.8</ele>
        <time>2019-05-30T12:59:27Z</time>
      </trkpt>
      <trkpt lat="51.196277988961" lon="4.535238973251">
        <ele>14.2</ele>
        <time>2019-05-30T12:59:35Z</time>
      </trkpt>
      <trkpt lat="51.196369016395" lon="4.534970500994">
        <ele>13.2</ele>
        <time>2019-05-30T12:59:43Z</time>
      </trkpt>
      <trkpt lat="51.196456188155" lon="4.534693730656">
        <ele>12.4</ele>
        <time>2019-05-30T12:59:52Z</time>
      </trkpt>
      <trkpt lat="51.196531625255" lon="4.534429868444">
        <ele>13</ele>
        <time>2019-05-30T12:59:59Z</time>
      </trkpt>
      <trkpt lat="51.196609912201" lon="4.534145386758">
        <ele>12.4</ele>
        <time>2019-05-30T13:00:07Z</time>
      </trkpt>
      <trkpt lat="51.196680068704" lon="4.533846739661">
        <ele>13.6</ele>
        <time>2019-05-30T13:00:15Z</time>
      </trkpt>
      <trkpt lat="51.19675081194" lon="4.533559659586">
        <ele>12.2</ele>
        <time>2019-05-30T13:00:23Z</time>
      </trkpt>
      <trkpt lat="51.196830020895" lon="4.533268556199">
        <ele>10.6</ele>
        <time>2019-05-30T13:00:31Z</time>
      </trkpt>
      <trkpt lat="51.196899339208" lon="4.532972256034">
        <ele>9.8</ele>
        <time>2019-05-30T13:00:39Z</time>
      </trkpt>
      <trkpt lat="51.196954995024" lon="4.532663047743">
        <ele>9.6</ele>
        <time>2019-05-30T13:00:47Z</time>
      </trkpt>
      <trkpt lat="51.197019619473" lon="4.53236406537">
        <ele>9</ele>
        <time>2019-05-30T13:00:55Z</time>
      </trkpt>
      <trkpt lat="51.197109221984" lon="4.531844219932">
        <ele>8.2</ele>
        <time>2019-05-30T13:01:09Z</time>
      </trkpt>
      <trkpt lat="51.197166135085" lon="4.531545069921">
        <ele>7.2</ele>
        <time>2019-05-30T13:01:17Z</time>
      </trkpt>
      <trkpt lat="51.197208882775" lon="4.53124508172">
        <ele>8</ele>
        <time>2019-05-30T13:01:25Z</time>
      </trkpt>
      <trkpt lat="51.197261604926" lon="4.530931347203">
        <ele>7</ele>
        <time>2019-05-30T13:01:33Z</time>
      </trkpt>
      <trkpt lat="51.197321200235" lon="4.530621384541">
        <ele>6.4</ele>
        <time>2019-05-30T13:01:41Z</time>
      </trkpt>
      <trkpt lat="51.197372497463" lon="4.530318127399">
        <ele>7.2</ele>
        <time>2019-05-30T13:01:49Z</time>
      </trkpt>
      <trkpt lat="51.197411724755" lon="4.530004057606">
        <ele>8.2</ele>
        <time>2019-05-30T13:01:57Z</time>
      </trkpt>
      <trkpt lat="51.197481545982" lon="4.529698537351">
        <ele>8.8</ele>
        <time>2019-05-30T13:02:05Z</time>
      </trkpt>
      <trkpt lat="51.197568969199" lon="4.529407014869">
        <ele>7.4</ele>
        <time>2019-05-30T13:02:13Z</time>
      </trkpt>
      <trkpt lat="51.197604424636" lon="4.529095459646">
        <ele>7.4</ele>
        <time>2019-05-30T13:02:21Z</time>
      </trkpt>
      <trkpt lat="51.197649267801" lon="4.528815839462">
        <ele>7.2</ele>
        <time>2019-05-30T13:02:28Z</time>
      </trkpt>
      <trkpt lat="51.197700984124" lon="4.528521467134">
        <ele>6.4</ele>
        <time>2019-05-30T13:02:35Z</time>
      </trkpt>
      <trkpt lat="51.197746749298" lon="4.528234889973">
        <ele>6.4</ele>
        <time>2019-05-30T13:02:42Z</time>
      </trkpt>
      <trkpt lat="51.1977935203" lon="4.527946133518">
        <ele>7.2</ele>
        <time>2019-05-30T13:02:49Z</time>
      </trkpt>
      <trkpt lat="51.197847583555" lon="4.527672464483">
        <ele>7.6</ele>
        <time>2019-05-30T13:02:56Z</time>
      </trkpt>
      <trkpt lat="51.19791505785" lon="4.527364597296">
        <ele>8.2</ele>
        <time>2019-05-30T13:03:04Z</time>
      </trkpt>
      <trkpt lat="51.197964008146" lon="4.527082546361">
        <ele>9</ele>
        <time>2019-05-30T13:03:11Z</time>
      </trkpt>
      <trkpt lat="51.198006839655" lon="4.526801920349">
        <ele>9.4</ele>
        <time>2019-05-30T13:03:18Z</time>
      </trkpt>
      <trkpt lat="51.198037265952" lon="4.526488269651">
        <ele>9.8</ele>
        <time>2019-05-30T13:03:26Z</time>
      </trkpt>
      <trkpt lat="51.198072972846" lon="4.526179731912">
        <ele>9.8</ele>
        <time>2019-05-30T13:03:35Z</time>
      </trkpt>
      <trkpt lat="51.198080516556" lon="4.52586725468">
        <ele>9.2</ele>
        <time>2019-05-30T13:03:44Z</time>
      </trkpt>
      <trkpt lat="51.198109601749" lon="4.52557053542">
        <ele>7.6</ele>
        <time>2019-05-30T13:03:52Z</time>
      </trkpt>
      <trkpt lat="51.198111110491" lon="4.525263841699">
        <ele>6.6</ele>
        <time>2019-05-30T13:04:00Z</time>
      </trkpt>
      <trkpt lat="51.198059394168" lon="4.524958321444">
        <ele>5.4</ele>
        <time>2019-05-30T13:04:09Z</time>
      </trkpt>
      <trkpt lat="51.198036679219" lon="4.524668726799">
        <ele>5.2</ele>
        <time>2019-05-30T13:04:17Z</time>
      </trkpt>
      <trkpt lat="51.198041875997" lon="4.524368235684">
        <ele>5.4</ele>
        <time>2019-05-30T13:04:25Z</time>
      </trkpt>
      <trkpt lat="51.198044725843" lon="4.524059111212">
        <ele>7.4</ele>
        <time>2019-05-30T13:04:33Z</time>
      </trkpt>
      <trkpt lat="51.198053443019" lon="4.523753423319">
        <ele>10.4</ele>
        <time>2019-05-30T13:04:41Z</time>
      </trkpt>
      <trkpt lat="51.198065848231" lon="4.523455362955">
        <ele>10.2</ele>
        <time>2019-05-30T13:04:49Z</time>
      </trkpt>
      <trkpt lat="51.198064507127" lon="4.523157554048">
        <ele>9</ele>
        <time>2019-05-30T13:04:57Z</time>
      </trkpt>
      <trkpt lat="51.198080432737" lon="4.522864522824">
        <ele>8.6</ele>
        <time>2019-05-30T13:05:05Z</time>
      </trkpt>
      <trkpt lat="51.198080432737" lon="4.522574509084">
        <ele>7.8</ele>
        <time>2019-05-30T13:05:12Z</time>
      </trkpt>
      <trkpt lat="51.198064758584" lon="4.522272676865">
        <ele>8</ele>
        <time>2019-05-30T13:05:19Z</time>
      </trkpt>
      <trkpt lat="51.198028045862" lon="4.521965061135">
        <ele>8.6</ele>
        <time>2019-05-30T13:05:27Z</time>
      </trkpt>
      <trkpt lat="51.198009940958" lon="4.521638753768">
        <ele>8.6</ele>
        <time>2019-05-30T13:05:35Z</time>
      </trkpt>
      <trkpt lat="51.19803324264" lon="4.521336083359">
        <ele>8</ele>
        <time>2019-05-30T13:05:42Z</time>
      </trkpt>
      <trkpt lat="51.198037098314" lon="4.521045901981">
        <ele>7</ele>
        <time>2019-05-30T13:05:49Z</time>
      </trkpt>
      <trkpt lat="51.197975323711" lon="4.520751697291">
        <ele>6.6</ele>
        <time>2019-05-30T13:05:57Z</time>
      </trkpt>
      <trkpt lat="51.197917740058" lon="4.520447350502">
        <ele>5.6</ele>
        <time>2019-05-30T13:06:05Z</time>
      </trkpt>
      <trkpt lat="51.197869627952" lon="4.520146188835">
        <ele>7.6</ele>
        <time>2019-05-30T13:06:13Z</time>
      </trkpt>
      <trkpt lat="51.197797962707" lon="4.519851481231">
        <ele>7.6</ele>
        <time>2019-05-30T13:06:21Z</time>
      </trkpt>
      <trkpt lat="51.197720681589" lon="4.519566245174">
        <ele>7</ele>
        <time>2019-05-30T13:06:29Z</time>
      </trkpt>
      <trkpt lat="51.19766695361" lon="4.519284780972">
        <ele>7</ele>
        <time>2019-05-30T13:06:37Z</time>
      </trkpt>
      <trkpt lat="51.197625714662" lon="4.518995437784">
        <ele>5</ele>
        <time>2019-05-30T13:06:45Z</time>
      </trkpt>
      <trkpt lat="51.197571567588" lon="4.518702490379">
        <ele>4.4</ele>
        <time>2019-05-30T13:06:53Z</time>
      </trkpt>
      <trkpt lat="51.19749931561" lon="4.518405435843">
        <ele>4.8</ele>
        <time>2019-05-30T13:07:01Z</time>
      </trkpt>
      <trkpt lat="51.197409042547" lon="4.517968906491">
        <ele>4</ele>
        <time>2019-05-30T13:07:13Z</time>
      </trkpt>
      <trkpt lat="51.197350369247" lon="4.517684089529">
        <ele>5.6</ele>
        <time>2019-05-30T13:07:21Z</time>
      </trkpt>
      <trkpt lat="51.197320529683" lon="4.517374043048">
        <ele>4.6</ele>
        <time>2019-05-30T13:07:29Z</time>
      </trkpt>
      <trkpt lat="51.197308962661" lon="4.517051256079">
        <ele>4</ele>
        <time>2019-05-30T13:07:37Z</time>
      </trkpt>
      <trkpt lat="51.197293707603" lon="4.516727463282">
        <ele>3.4</ele>
        <time>2019-05-30T13:07:45Z</time>
      </trkpt>
      <trkpt lat="51.197229669887" lon="4.516438120094">
        <ele>6.2</ele>
        <time>2019-05-30T13:07:53Z</time>
      </trkpt>
      <trkpt lat="51.197188430939" lon="4.516145256508">
        <ele>7.8</ele>
        <time>2019-05-30T13:08:01Z</time>
      </trkpt>
      <trkpt lat="51.197154903339" lon="4.515831438172">
        <ele>7.2</ele>
        <time>2019-05-30T13:08:10Z</time>
      </trkpt>
      <trkpt lat="51.197105869224" lon="4.515537233482">
        <ele>7</ele>
        <time>2019-05-30T13:08:18Z</time>
      </trkpt>
      <trkpt lat="51.197078041316" lon="4.515233808702">
        <ele>6.6</ele>
        <time>2019-05-30T13:08:26Z</time>
      </trkpt>
      <trkpt lat="51.197041580051" lon="4.514946812446">
        <ele>8</ele>
        <time>2019-05-30T13:08:34Z</time>
      </trkpt>
      <trkpt lat="51.197010064107" lon="4.514642968571">
        <ele>8</ele>
        <time>2019-05-30T13:08:43Z</time>
      </trkpt>
      <trkpt lat="51.196944936744" lon="4.514370221545">
        <ele>9.2</ele>
        <time>2019-05-30T13:08:51Z</time>
      </trkpt>
      <trkpt lat="51.196887185453" lon="4.514064617471">
        <ele>8.8</ele>
        <time>2019-05-30T13:08:59Z</time>
      </trkpt>
      <trkpt lat="51.196838738071" lon="4.51375624737">
        <ele>9.2</ele>
        <time>2019-05-30T13:09:07Z</time>
      </trkpt>
      <trkpt lat="51.196828931248" lon="4.513442931948">
        <ele>11.4</ele>
        <time>2019-05-30T13:09:15Z</time>
      </trkpt>
      <trkpt lat="51.196795152191" lon="4.513140093901">
        <ele>10</ele>
        <time>2019-05-30T13:09:23Z</time>
      </trkpt>
      <trkpt lat="51.196756092537" lon="4.512833986913">
        <ele>8.4</ele>
        <time>2019-05-30T13:09:31Z</time>
      </trkpt>
      <trkpt lat="51.196721056195" lon="4.512518156921">
        <ele>7</ele>
        <time>2019-05-30T13:09:39Z</time>
      </trkpt>
      <trkpt lat="51.19670219692" lon="4.512194950857">
        <ele>4.2</ele>
        <time>2019-05-30T13:09:47Z</time>
      </trkpt>
      <trkpt lat="51.196667663492" lon="4.511889765878">
        <ele>3.8</ele>
        <time>2019-05-30T13:09:55Z</time>
      </trkpt>
      <trkpt lat="51.196581413741" lon="4.511615007196">
        <ele>3.6</ele>
        <time>2019-05-30T13:10:03Z</time>
      </trkpt>
      <trkpt lat="51.196564901398" lon="4.511297333186">
        <ele>3.2</ele>
        <time>2019-05-30T13:10:11Z</time>
      </trkpt>
      <trkpt lat="51.196555429851" lon="4.510975384407">
        <ele>2.8</ele>
        <time>2019-05-30T13:10:19Z</time>
      </trkpt>
      <trkpt lat="51.196588622175" lon="4.510687382323">
        <ele>4</ele>
        <time>2019-05-30T13:10:27Z</time>
      </trkpt>
      <trkpt lat="51.196576971334" lon="4.51037834167">
        <ele>4.4</ele>
        <time>2019-05-30T13:10:35Z</time>
      </trkpt>
      <trkpt lat="51.196545287752" lon="4.51006402042">
        <ele>4.2</ele>
        <time>2019-05-30T13:10:43Z</time>
      </trkpt>
      <trkpt lat="51.196508826487" lon="4.509754393034">
        <ele>4.8</ele>
        <time>2019-05-30T13:10:51Z</time>
      </trkpt>
      <trkpt lat="51.196470269747" lon="4.509445939114">
        <ele>4.8</ele>
        <time>2019-05-30T13:10:59Z</time>
      </trkpt>
      <trkpt lat="51.196421654727" lon="4.509164139636">
        <ele>5.2</ele>
        <time>2019-05-30T13:11:07Z</time>
      </trkpt>
      <trkpt lat="51.196396425208" lon="4.508861469227">
        <ele>5.8</ele>
        <time>2019-05-30T13:11:15Z</time>
      </trkpt>
      <trkpt lat="51.196382427435" lon="4.508572209858">
        <ele>6</ele>
        <time>2019-05-30T13:11:22Z</time>
      </trkpt>
      <trkpt lat="51.196355270079" lon="4.508268198345">
        <ele>6</ele>
        <time>2019-05-30T13:11:30Z</time>
      </trkpt>
      <trkpt lat="51.196323251221" lon="4.507958235683">
        <ele>5.6</ele>
        <time>2019-05-30T13:11:38Z</time>
      </trkpt>
      <trkpt lat="51.196250831605" lon="4.50769194272">
        <ele>5.8</ele>
        <time>2019-05-30T13:11:45Z</time>
      </trkpt>
      <trkpt lat="51.196190398106" lon="4.507395977831">
        <ele>7</ele>
        <time>2019-05-30T13:11:53Z</time>
      </trkpt>
      <trkpt lat="51.19616826989" lon="4.507078890554">
        <ele>6.4</ele>
        <time>2019-05-30T13:12:01Z</time>
      </trkpt>
      <trkpt lat="51.196201629852" lon="4.506760965087">
        <ele>6.6</ele>
        <time>2019-05-30T13:12:09Z</time>
      </trkpt>
      <trkpt lat="51.196192745038" lon="4.506460138696">
        <ele>7</ele>
        <time>2019-05-30T13:12:17Z</time>
      </trkpt>
      <trkpt lat="51.196173466668" lon="4.506140872125">
        <ele>7.6</ele>
        <time>2019-05-30T13:12:25Z</time>
      </trkpt>
      <trkpt lat="51.196159468895" lon="4.5058244554">
        <ele>6.2</ele>
        <time>2019-05-30T13:12:33Z</time>
      </trkpt>
      <trkpt lat="51.196113284626" lon="4.505540979542">
        <ele>7</ele>
        <time>2019-05-30T13:12:40Z</time>
      </trkpt>
      <trkpt lat="51.196083193605" lon="4.505240572246">
        <ele>7</ele>
        <time>2019-05-30T13:12:48Z</time>
      </trkpt>
      <trkpt lat="51.196067184176" lon="4.504938572389">
        <ele>8.4</ele>
        <time>2019-05-30T13:12:56Z</time>
      </trkpt>
      <trkpt lat="51.196046145607" lon="4.504622071845">
        <ele>10</ele>
        <time>2019-05-30T13:13:04Z</time>
      </trkpt>
      <trkpt lat="51.196011276903" lon="4.504333063933">
        <ele>10</ele>
        <time>2019-05-30T13:13:12Z</time>
      </trkpt>
      <trkpt lat="51.195967020471" lon="4.504011785706">
        <ele>10.2</ele>
        <time>2019-05-30T13:13:20Z</time>
      </trkpt>
      <trkpt lat="51.195892756837" lon="4.503744654553">
        <ele>6.6</ele>
        <time>2019-05-30T13:13:28Z</time>
      </trkpt>
      <trkpt lat="51.195830814596" lon="4.503475260287">
        <ele>5.8</ele>
        <time>2019-05-30T13:13:36Z</time>
      </trkpt>
      <trkpt lat="51.195794772426" lon="4.503174769172">
        <ele>6.8</ele>
        <time>2019-05-30T13:13:44Z</time>
      </trkpt>
      <trkpt lat="51.195758059704" lon="4.502859525913">
        <ele>5.8</ele>
        <time>2019-05-30T13:13:52Z</time>
      </trkpt>
      <trkpt lat="51.195754706944" lon="4.502551491088">
        <ele>5.6</ele>
        <time>2019-05-30T13:14:00Z</time>
      </trkpt>
      <trkpt lat="51.195759736084" lon="4.50224706048">
        <ele>5.8</ele>
        <time>2019-05-30T13:14:08Z</time>
      </trkpt>
      <trkpt lat="51.195752360012" lon="4.50193022466">
        <ele>5.8</ele>
        <time>2019-05-30T13:14:16Z</time>
      </trkpt>
      <trkpt lat="51.19575755679" lon="4.501624536767">
        <ele>6.2</ele>
        <time>2019-05-30T13:14:24Z</time>
      </trkpt>
      <trkpt lat="51.195838190668" lon="4.501366877161">
        <ele>7.4</ele>
        <time>2019-05-30T13:14:32Z</time>
      </trkpt>
      <trkpt lat="51.195869622793" lon="4.501080635276">
        <ele>7.2</ele>
        <time>2019-05-30T13:14:40Z</time>
      </trkpt>
      <trkpt lat="51.195917064347" lon="4.50077687522">
        <ele>6.8</ele>
        <time>2019-05-30T13:14:48Z</time>
      </trkpt>
      <trkpt lat="51.195932235586" lon="4.500488370222">
        <ele>8.6</ele>
        <time>2019-05-30T13:14:56Z</time>
      </trkpt>
      <trkpt lat="51.195978587493" lon="4.500188046745">
        <ele>7.2</ele>
        <time>2019-05-30T13:15:04Z</time>
      </trkpt>
      <trkpt lat="51.196025526133" lon="4.499870456554">
        <ele>6.4</ele>
        <time>2019-05-30T13:15:12Z</time>
      </trkpt>
      <trkpt lat="51.196064166692" lon="4.499587651248">
        <ele>6.2</ele>
        <time>2019-05-30T13:15:19Z</time>
      </trkpt>
      <trkpt lat="51.196115296282" lon="4.499313144023">
        <ele>5.6</ele>
        <time>2019-05-30T13:15:26Z</time>
      </trkpt>
      <trkpt lat="51.196177741437" lon="4.499020196618">
        <ele>6.8</ele>
        <time>2019-05-30T13:15:34Z</time>
      </trkpt>
      <trkpt lat="51.196246892112" lon="4.498755496216">
        <ele>7.4</ele>
        <time>2019-05-30T13:15:41Z</time>
      </trkpt>
      <trkpt lat="51.19632501142" lon="4.498488532701">
        <ele>7.8</ele>
        <time>2019-05-30T13:15:48Z</time>
      </trkpt>
      <trkpt lat="51.196397431036" lon="4.498216037132">
        <ele>8.2</ele>
        <time>2019-05-30T13:15:56Z</time>
      </trkpt>
      <trkpt lat="51.196478651647" lon="4.49795133673">
        <ele>9.8</ele>
        <time>2019-05-30T13:16:04Z</time>
      </trkpt>
      <trkpt lat="51.196571774556" lon="4.497661155352">
        <ele>9.4</ele>
        <time>2019-05-30T13:16:12Z</time>
      </trkpt>
      <trkpt lat="51.196651402606" lon="4.497402909013">
        <ele>7.2</ele>
        <time>2019-05-30T13:16:19Z</time>
      </trkpt>
      <trkpt lat="51.196732958493" lon="4.49712069044">
        <ele>7.6</ele>
        <time>2019-05-30T13:16:27Z</time>
      </trkpt>
      <trkpt lat="51.196808060317" lon="4.496843501007">
        <ele>7</ele>
        <time>2019-05-30T13:16:35Z</time>
      </trkpt>
      <trkpt lat="51.196889448566" lon="4.496568239411">
        <ele>8.4</ele>
        <time>2019-05-30T13:16:43Z</time>
      </trkpt>
      <trkpt lat="51.196985253683" lon="4.496318039696">
        <ele>8</ele>
        <time>2019-05-30T13:16:51Z</time>
      </trkpt>
      <trkpt lat="51.197103606111" lon="4.496083095039">
        <ele>7.8</ele>
        <time>2019-05-30T13:16:59Z</time>
      </trkpt>
      <trkpt lat="51.197217432313" lon="4.495832140953">
        <ele>9.8</ele>
        <time>2019-05-30T13:17:07Z</time>
      </trkpt>
      <trkpt lat="51.197333521628" lon="4.495611696983">
        <ele>8.8</ele>
        <time>2019-05-30T13:17:15Z</time>
      </trkpt>
      <trkpt lat="51.197453382798" lon="4.495360407621">
        <ele>7.4</ele>
        <time>2019-05-30T13:17:23Z</time>
      </trkpt>
      <trkpt lat="51.197563101869" lon="4.495116829607">
        <ele>7.8</ele>
        <time>2019-05-30T13:17:31Z</time>
      </trkpt>
      <trkpt lat="51.197674162044" lon="4.49488523771">
        <ele>7.8</ele>
        <time>2019-05-30T13:17:38Z</time>
      </trkpt>
      <trkpt lat="51.197789496988" lon="4.494621040222">
        <ele>8.6</ele>
        <time>2019-05-30T13:17:46Z</time>
      </trkpt>
      <trkpt lat="51.197885385924" lon="4.494373271258">
        <ele>9.2</ele>
        <time>2019-05-30T13:17:53Z</time>
      </trkpt>
      <trkpt lat="51.198006336741" lon="4.494120221697">
        <ele>9.8</ele>
        <time>2019-05-30T13:18:01Z</time>
      </trkpt>
      <trkpt lat="51.198121084952" lon="4.493882343375">
        <ele>7.8</ele>
        <time>2019-05-30T13:18:09Z</time>
      </trkpt>
      <trkpt lat="51.198243125416" lon="4.493638430085">
        <ele>3.2</ele>
        <time>2019-05-30T13:18:17Z</time>
      </trkpt>
      <trkpt lat="51.198355526695" lon="4.493377669176">
        <ele>1.8</ele>
        <time>2019-05-30T13:18:25Z</time>
      </trkpt>
      <trkpt lat="51.198457450599" lon="4.493113387869">
        <ele>1.6</ele>
        <time>2019-05-30T13:18:33Z</time>
      </trkpt>
      <trkpt lat="51.198561637616" lon="4.492855057711">
        <ele>0.6</ele>
        <time>2019-05-30T13:18:41Z</time>
      </trkpt>
      <trkpt lat="51.198672111058" lon="4.49259111168">
        <ele>1.2</ele>
        <time>2019-05-30T13:18:49Z</time>
      </trkpt>
      <trkpt lat="51.198779147921" lon="4.492340744327">
        <ele>0.8</ele>
        <time>2019-05-30T13:18:57Z</time>
      </trkpt>
      <trkpt lat="51.198868750432" lon="4.492073277898">
        <ele>4.2</ele>
        <time>2019-05-30T13:19:04Z</time>
      </trkpt>
      <trkpt lat="51.19897285363" lon="4.491817378491">
        <ele>7.8</ele>
        <time>2019-05-30T13:19:12Z</time>
      </trkpt>
      <trkpt lat="51.199092128067" lon="4.491559970342">
        <ele>7.6</ele>
        <time>2019-05-30T13:19:20Z</time>
      </trkpt>
      <trkpt lat="51.19920503226" lon="4.491244894721">
        <ele>6.4</ele>
        <time>2019-05-30T13:19:29Z</time>
      </trkpt>
      <trkpt lat="51.199306285612" lon="4.49097759593">
        <ele>9.2</ele>
        <time>2019-05-30T13:19:37Z</time>
      </trkpt>
      <trkpt lat="51.199407455145" lon="4.490718343763">
        <ele>12.8</ele>
        <time>2019-05-30T13:19:45Z</time>
      </trkpt>
      <trkpt lat="51.199540894993" lon="4.490481219812">
        <ele>16.2</ele>
        <time>2019-05-30T13:19:53Z</time>
      </trkpt>
      <trkpt lat="51.19965178753" lon="4.490240659282">
        <ele>18.2</ele>
        <time>2019-05-30T13:20:00Z</time>
      </trkpt>
      <trkpt lat="51.199775672012" lon="4.490014934715">
        <ele>18.2</ele>
        <time>2019-05-30T13:20:08Z</time>
      </trkpt>
      <trkpt lat="51.199896203734" lon="4.489780995886">
        <ele>18.2</ele>
        <time>2019-05-30T13:20:16Z</time>
      </trkpt>
      <trkpt lat="51.20001975294" lon="4.489567173617">
        <ele>18.6</ele>
        <time>2019-05-30T13:20:24Z</time>
      </trkpt>
      <trkpt lat="51.200151432589" lon="4.489365588922">
        <ele>17.6</ele>
        <time>2019-05-30T13:20:32Z</time>
      </trkpt>
      <trkpt lat="51.200294930717" lon="4.489149754997">
        <ele>16.4</ele>
        <time>2019-05-30T13:20:40Z</time>
      </trkpt>
      <trkpt lat="51.200437339198" lon="4.488932496149">
        <ele>13.4</ele>
        <time>2019-05-30T13:20:48Z</time>
      </trkpt>
      <trkpt lat="51.200567174829" lon="4.488700401338">
        <ele>9.4</ele>
        <time>2019-05-30T13:20:56Z</time>
      </trkpt>
      <trkpt lat="51.200680079022" lon="4.488469396174">
        <ele>9.6</ele>
        <time>2019-05-30T13:21:03Z</time>
      </trkpt>
      <trkpt lat="51.200807902997" lon="4.488217603898">
        <ele>10.4</ele>
        <time>2019-05-30T13:21:10Z</time>
      </trkpt>
      <trkpt lat="51.200918963172" lon="4.487975618445">
        <ele>11.8</ele>
        <time>2019-05-30T13:21:17Z</time>
      </trkpt>
      <trkpt lat="51.201043266749" lon="4.4877614609">
        <ele>9.8</ele>
        <time>2019-05-30T13:21:25Z</time>
      </trkpt>
      <trkpt lat="51.201172012733" lon="4.487515452135">
        <ele>8</ele>
        <time>2019-05-30T13:21:33Z</time>
      </trkpt>
      <trkpt lat="51.201297657414" lon="4.487276819442">
        <ele>10</ele>
        <time>2019-05-30T13:21:41Z</time>
      </trkpt>
      <trkpt lat="51.201387595201" lon="4.48700373714">
        <ele>13</ele>
        <time>2019-05-30T13:21:49Z</time>
      </trkpt>
      <trkpt lat="51.201493458598" lon="4.486748508285">
        <ele>17</ele>
        <time>2019-05-30T13:21:57Z</time>
      </trkpt>
      <trkpt lat="51.201604099678" lon="4.486484310797">
        <ele>20</ele>
        <time>2019-05-30T13:22:05Z</time>
      </trkpt>
      <trkpt lat="51.201739635001" lon="4.486233356711">
        <ele>22</ele>
        <time>2019-05-30T13:22:13Z</time>
      </trkpt>
      <trkpt lat="51.201900567481" lon="4.486082147235">
        <ele>15.8</ele>
        <time>2019-05-30T13:22:20Z</time>
      </trkpt>
      <trkpt lat="51.202029900198" lon="4.485880059626">
        <ele>16</ele>
        <time>2019-05-30T13:22:27Z</time>
      </trkpt>
      <trkpt lat="51.202167279539" lon="4.485692472704">
        <ele>14.2</ele>
        <time>2019-05-30T13:22:34Z</time>
      </trkpt>
      <trkpt lat="51.202284961415" lon="4.485549561309">
        <ele>15.2</ele>
        <time>2019-05-30T13:22:40Z</time>
      </trkpt>
      <trkpt lat="51.202472464518" lon="4.485671937049">
        <ele>13</ele>
        <time>2019-05-30T13:23:42Z</time>
      </trkpt>
      <trkpt lat="51.202473386527" lon="4.485655340887">
        <ele>13.6</ele>
        <time>2019-05-30T13:23:43Z</time>
      </trkpt>
      <trkpt lat="51.202475314364" lon="4.485599349795">
        <ele>14.4</ele>
        <time>2019-05-30T13:23:45Z</time>
      </trkpt>
      <trkpt lat="51.202581093942" lon="4.485354598315">
        <ele>14.2</ele>
        <time>2019-05-30T13:23:53Z</time>
      </trkpt>
      <trkpt lat="51.202729453572" lon="4.485143206797">
        <ele>12.4</ele>
        <time>2019-05-30T13:24:01Z</time>
      </trkpt>
      <trkpt lat="51.202855852624" lon="4.484915470574">
        <ele>12.8</ele>
        <time>2019-05-30T13:24:09Z</time>
      </trkpt>
      <trkpt lat="51.2029819164" lon="4.484675748234">
        <ele>16.8</ele>
        <time>2019-05-30T13:24:17Z</time>
      </trkpt>
      <trkpt lat="51.203162211069" lon="4.484528478251">
        <ele>12.2</ele>
        <time>2019-05-30T13:24:24Z</time>
      </trkpt>
      <trkpt lat="51.203320377522" lon="4.484376933499">
        <ele>10</ele>
        <time>2019-05-30T13:24:31Z</time>
      </trkpt>
      <trkpt lat="51.203490865368" lon="4.484218599408">
        <ele>8.6</ele>
        <time>2019-05-30T13:24:39Z</time>
      </trkpt>
      <trkpt lat="51.203640147007" lon="4.484032940323">
        <ele>8.8</ele>
        <time>2019-05-30T13:24:47Z</time>
      </trkpt>
      <trkpt lat="51.203809796663" lon="4.483850801636">
        <ele>9</ele>
        <time>2019-05-30T13:24:55Z</time>
      </trkpt>
      <trkpt lat="51.203972573161" lon="4.483660448687">
        <ele>8</ele>
        <time>2019-05-30T13:25:03Z</time>
      </trkpt>
      <trkpt lat="51.204120010782" lon="4.483480070199">
        <ele>9.6</ele>
        <time>2019-05-30T13:25:11Z</time>
      </trkpt>
      <trkpt lat="51.204284379841" lon="4.483300781358">
        <ele>9.8</ele>
        <time>2019-05-30T13:25:19Z</time>
      </trkpt>
      <trkpt lat="51.204448832719" lon="4.483157031773">
        <ele>6.8</ele>
        <time>2019-05-30T13:25:26Z</time>
      </trkpt>
      <trkpt lat="51.204596018883" lon="4.482992746533">
        <ele>6.6</ele>
        <time>2019-05-30T13:25:33Z</time>
      </trkpt>
      <trkpt lat="51.204740858115" lon="4.482810021113">
        <ele>5.6</ele>
        <time>2019-05-30T13:25:43Z</time>
      </trkpt>
      <trkpt lat="51.204902461147" lon="4.482666020071">
        <ele>3.2</ele>
        <time>2019-05-30T13:25:50Z</time>
      </trkpt>
      <trkpt lat="51.205051323691" lon="4.482483294651">
        <ele>0.6</ele>
        <time>2019-05-30T13:25:57Z</time>
      </trkpt>
      <trkpt lat="51.205187361928" lon="4.482288331657">
        <ele>0</ele>
        <time>2019-05-30T13:26:04Z</time>
      </trkpt>
      <trkpt lat="51.205342175621" lon="4.482070402257">
        <ele>3.6</ele>
        <time>2019-05-30T13:26:12Z</time>
      </trkpt>
      <trkpt lat="51.205484500283" lon="4.481886754828">
        <ele>5.6</ele>
        <time>2019-05-30T13:26:19Z</time>
      </trkpt>
      <trkpt lat="51.205804856501" lon="4.48157897146">
        <ele>0.2</ele>
        <time>2019-05-30T13:26:33Z</time>
      </trkpt>
      <trkpt lat="51.205955479244" lon="4.481413428935">
        <ele>0</ele>
        <time>2019-05-30T13:26:41Z</time>
      </trkpt>
      <trkpt lat="51.206114148611" lon="4.481243946917">
        <ele>0.2</ele>
        <time>2019-05-30T13:26:50Z</time>
      </trkpt>
      <trkpt lat="51.206263011155" lon="4.481043619507">
        <ele>1.2</ele>
        <time>2019-05-30T13:26:58Z</time>
      </trkpt>
      <trkpt lat="51.206414639726" lon="4.480840442251">
        <ele>2</ele>
        <time>2019-05-30T13:27:06Z</time>
      </trkpt>
      <trkpt lat="51.206570040152" lon="4.480667439835">
        <ele>2</ele>
        <time>2019-05-30T13:27:14Z</time>
      </trkpt>
      <trkpt lat="51.206732397555" lon="4.480487061347">
        <ele>1.6</ele>
        <time>2019-05-30T13:27:22Z</time>
      </trkpt>
      <trkpt lat="51.206889139085" lon="4.48030659904">
        <ele>1</ele>
        <time>2019-05-30T13:27:30Z</time>
      </trkpt>
      <trkpt lat="51.207041522027" lon="4.480131752606">
        <ele>2.2</ele>
        <time>2019-05-30T13:27:38Z</time>
      </trkpt>
      <trkpt lat="51.207198263557" lon="4.479950871204">
        <ele>3.4</ele>
        <time>2019-05-30T13:27:46Z</time>
      </trkpt>
      <trkpt lat="51.207356765286" lon="4.479770744173">
        <ele>2.4</ele>
        <time>2019-05-30T13:27:54Z</time>
      </trkpt>
      <trkpt lat="51.207517278671" lon="4.479608805865">
        <ele>3.2</ele>
        <time>2019-05-30T13:28:02Z</time>
      </trkpt>
      <trkpt lat="51.207665051568" lon="4.479399342184">
        <ele>4.2</ele>
        <time>2019-05-30T13:28:10Z</time>
      </trkpt>
      <trkpt lat="51.207786589118" lon="4.479169259029">
        <ele>4</ele>
        <time>2019-05-30T13:28:18Z</time>
      </trkpt>
      <trkpt lat="51.207921118613" lon="4.478960633538">
        <ele>4.2</ele>
        <time>2019-05-30T13:28:26Z</time>
      </trkpt>
      <trkpt lat="51.20804709857" lon="4.478752510961">
        <ele>3.8</ele>
        <time>2019-05-30T13:28:33Z</time>
      </trkpt>
      <trkpt lat="51.208166456826" lon="4.478499796676">
        <ele>3.2</ele>
        <time>2019-05-30T13:28:41Z</time>
      </trkpt>
      <trkpt lat="51.208264776513" lon="4.478229648039">
        <ele>3.2</ele>
        <time>2019-05-30T13:28:49Z</time>
      </trkpt>
      <trkpt lat="51.208337447586" lon="4.477931503856">
        <ele>4.4</ele>
        <time>2019-05-30T13:28:57Z</time>
      </trkpt>
      <trkpt lat="51.208378770353" lon="4.477650710206">
        <ele>5.6</ele>
        <time>2019-05-30T13:29:05Z</time>
      </trkpt>
      <trkpt lat="51.208408777555" lon="4.477339574078">
        <ele>8.4</ele>
        <time>2019-05-30T13:29:14Z</time>
      </trkpt>
      <trkpt lat="51.20841674036" lon="4.477012428521">
        <ele>10.2</ele>
        <time>2019-05-30T13:29:23Z</time>
      </trkpt>
      <trkpt lat="51.208470133063" lon="4.476718391469">
        <ele>10.2</ele>
        <time>2019-05-30T13:29:31Z</time>
      </trkpt>
      <trkpt lat="51.208516904065" lon="4.476407003884">
        <ele>7.8</ele>
        <time>2019-05-30T13:29:39Z</time>
      </trkpt>
      <trkpt lat="51.208558813565" lon="4.47609637067">
        <ele>7</ele>
        <time>2019-05-30T13:29:47Z</time>
      </trkpt>
      <trkpt lat="51.208599968694" lon="4.475791940062">
        <ele>8.6</ele>
        <time>2019-05-30T13:29:55Z</time>
      </trkpt>
      <trkpt lat="51.208608853508" lon="4.475494634069">
        <ele>9.4</ele>
        <time>2019-05-30T13:30:03Z</time>
      </trkpt>
      <trkpt lat="51.2086480808" lon="4.475214091876">
        <ele>10.2</ele>
        <time>2019-05-30T13:30:11Z</time>
      </trkpt>
      <trkpt lat="51.208686386083" lon="4.474931370389">
        <ele>8.6</ele>
        <time>2019-05-30T13:30:19Z</time>
      </trkpt>
      <trkpt lat="51.208723350262" lon="4.474614618388">
        <ele>8.6</ele>
        <time>2019-05-30T13:30:28Z</time>
      </trkpt>
      <trkpt lat="51.208768193427" lon="4.474309684866">
        <ele>9.4</ele>
        <time>2019-05-30T13:30:36Z</time>
      </trkpt>
      <trkpt lat="51.208813874782" lon="4.473992010856">
        <ele>6.8</ele>
        <time>2019-05-30T13:30:45Z</time>
      </trkpt>
      <trkpt lat="51.208849497857" lon="4.473682551108">
        <ele>7.4</ele>
        <time>2019-05-30T13:30:54Z</time>
      </trkpt>
      <trkpt lat="51.208877996317" lon="4.473460598396">
        <ele>7.8</ele>
        <time>2019-05-30T13:31:00Z</time>
      </trkpt>
      <trkpt lat="51.208933735952" lon="4.47318198404">
        <ele>6.4</ele>
        <time>2019-05-30T13:31:08Z</time>
      </trkpt>
      <trkpt lat="51.209013447821" lon="4.473057261368">
        <ele>6.4</ele>
        <time>2019-05-30T13:31:13Z</time>
      </trkpt>
      <trkpt lat="51.209208913729" lon="4.47313839816">
        <ele>6.6</ele>
        <time>2019-05-30T13:31:20Z</time>
      </trkpt>
      <trkpt lat="51.209376970824" lon="4.47327921408">
        <ele>9.2</ele>
        <time>2019-05-30T13:31:27Z</time>
      </trkpt>
      <trkpt lat="51.209516697097" lon="4.473472500694">
        <ele>8.6</ele>
        <time>2019-05-30T13:31:34Z</time>
      </trkpt>
      <trkpt lat="51.20963630681" lon="4.473689675723">
        <ele>7</ele>
        <time>2019-05-30T13:31:41Z</time>
      </trkpt>
      <trkpt lat="51.209748037537" lon="4.473922189629">
        <ele>5.4</ele>
        <time>2019-05-30T13:31:48Z</time>
      </trkpt>
      <trkpt lat="51.209852392192" lon="4.474183034357">
        <ele>4.2</ele>
        <time>2019-05-30T13:31:56Z</time>
      </trkpt>
      <trkpt lat="51.209944676911" lon="4.474453350632">
        <ele>3.6</ele>
        <time>2019-05-30T13:32:04Z</time>
      </trkpt>
      <trkpt lat="51.210031010481" lon="4.474747974417">
        <ele>3</ele>
        <time>2019-05-30T13:32:12Z</time>
      </trkpt>
      <trkpt lat="51.210106028486" lon="4.475013093914">
        <ele>3.8</ele>
        <time>2019-05-30T13:32:19Z</time>
      </trkpt>
      <trkpt lat="51.210165372338" lon="4.475319452359">
        <ele>4.4</ele>
        <time>2019-05-30T13:32:28Z</time>
      </trkpt>
      <trkpt lat="51.210230164425" lon="4.475625391709">
        <ele>5.8</ele>
        <time>2019-05-30T13:32:36Z</time>
      </trkpt>
      <trkpt lat="51.210307780819" lon="4.4759597457">
        <ele>7.6</ele>
        <time>2019-05-30T13:32:46Z</time>
      </trkpt>
      <trkpt lat="51.210404507945" lon="4.476204329542">
        <ele>12.6</ele>
        <time>2019-05-30T13:32:54Z</time>
      </trkpt>
      <trkpt lat="51.21045521844" lon="4.47635704776">
        <ele>15.4</ele>
        <time>2019-05-30T13:33:00Z</time>
      </trkpt>
      <trkpt lat="51.210359832418" lon="4.476322095237">
        <ele>3.4</ele>
        <time>2019-05-30T13:34:10Z</time>
      </trkpt>
      <trkpt lat="51.210369303965" lon="4.476325699454">
        <ele>3</ele>
        <time>2019-05-30T13:34:11Z</time>
      </trkpt>
      <trkpt lat="51.21040157428" lon="4.476396777966">
        <ele>2.8</ele>
        <time>2019-05-30T13:34:14Z</time>
      </trkpt>
      <trkpt lat="51.210464270892" lon="4.476675979055">
        <ele>4.6</ele>
        <time>2019-05-30T13:34:21Z</time>
      </trkpt>
      <trkpt lat="51.21056502133" lon="4.476951827384">
        <ele>6.4</ele>
        <time>2019-05-30T13:34:28Z</time>
      </trkpt>
      <trkpt lat="51.210651606357" lon="4.477211582465">
        <ele>8.6</ele>
        <time>2019-05-30T13:34:34Z</time>
      </trkpt>
      <trkpt lat="51.210752692071" lon="4.477458261782">
        <ele>10.2</ele>
        <time>2019-05-30T13:34:41Z</time>
      </trkpt>
      <trkpt lat="51.210840115288" lon="4.477748778436">
        <ele>7.2</ele>
        <time>2019-05-30T13:34:50Z</time>
      </trkpt>
      <trkpt lat="51.210923347555" lon="4.478006940956">
        <ele>3.8</ele>
        <time>2019-05-30T13:34:58Z</time>
      </trkpt>
      <trkpt lat="51.211032898988" lon="4.478245657468">
        <ele>6</ele>
        <time>2019-05-30T13:35:08Z</time>
      </trkpt>
      <trkpt lat="51.211209673259" lon="4.478382869171">
        <ele>6.4</ele>
        <time>2019-05-30T13:35:16Z</time>
      </trkpt>
      <trkpt lat="51.211334228293" lon="4.478604402788">
        <ele>3.4</ele>
        <time>2019-05-30T13:35:23Z</time>
      </trkpt>
      <trkpt lat="51.211425255727" lon="4.478856278883">
        <ele>0</ele>
        <time>2019-05-30T13:35:29Z</time>
      </trkpt>
      <trkpt lat="51.211574034452" lon="4.479072280446">
        <ele>3.4</ele>
        <time>2019-05-30T13:35:38Z</time>
      </trkpt>
      <trkpt lat="51.211702277522" lon="4.479294149339">
        <ele>2.2</ele>
        <time>2019-05-30T13:35:46Z</time>
      </trkpt>
      <trkpt lat="51.21183487918" lon="4.479510486178">
        <ele>1.4</ele>
        <time>2019-05-30T13:35:55Z</time>
      </trkpt>
      <trkpt lat="51.211994638194" lon="4.479700336213">
        <ele>1.8</ele>
        <time>2019-05-30T13:36:04Z</time>
      </trkpt>
      <trkpt lat="51.212147021136" lon="4.479852886793">
        <ele>2.8</ele>
        <time>2019-05-30T13:36:12Z</time>
      </trkpt>
      <trkpt lat="51.21229588368" lon="4.480017842585">
        <ele>2.4</ele>
        <time>2019-05-30T13:36:20Z</time>
      </trkpt>
      <trkpt lat="51.21245681616" lon="4.480167124224">
        <ele>1.2</ele>
        <time>2019-05-30T13:36:28Z</time>
      </trkpt>
      <trkpt lat="51.212625962902" lon="4.480294361466">
        <ele>0.6</ele>
        <time>2019-05-30T13:36:36Z</time>
      </trkpt>
      <trkpt lat="51.21278622483" lon="4.480439955069">
        <ele>0</ele>
        <time>2019-05-30T13:36:44Z</time>
      </trkpt>
      <trkpt lat="51.212849675813" lon="4.48048345713">
        <ele>0</ele>
        <time>2019-05-30T13:36:49Z</time>
      </trkpt>
      <trkpt lat="51.212832744375" lon="4.480480607284">
        <ele>0</ele>
        <time>2019-05-30T13:37:07Z</time>
      </trkpt>
      <trkpt lat="51.212845820139" lon="4.480434171558">
        <ele>0</ele>
        <time>2019-05-30T13:37:09Z</time>
      </trkpt>
      <trkpt lat="51.212922682162" lon="4.480136195013">
        <ele>0</ele>
        <time>2019-05-30T13:37:18Z</time>
      </trkpt>
      <trkpt lat="51.213029216111" lon="4.479870991697">
        <ele>0</ele>
        <time>2019-05-30T13:37:26Z</time>
      </trkpt>
      <trkpt lat="51.213132816395" lon="4.479627748959">
        <ele>0</ele>
        <time>2019-05-30T13:37:35Z</time>
      </trkpt>
      <trkpt lat="51.213222754182" lon="4.479349805155">
        <ele>0</ele>
        <time>2019-05-30T13:37:43Z</time>
      </trkpt>
      <trkpt lat="51.213306992277" lon="4.479084769477">
        <ele>0</ele>
        <time>2019-05-30T13:37:51Z</time>
      </trkpt>
      <trkpt lat="51.213365749396" lon="4.478803221456">
        <ele>0</ele>
        <time>2019-05-30T13:37:59Z</time>
      </trkpt>
      <trkpt lat="51.213422578678" lon="4.478508932947">
        <ele>0</ele>
        <time>2019-05-30T13:38:07Z</time>
      </trkpt>
      <trkpt lat="51.213567082634" lon="4.478355795634">
        <ele>0</ele>
        <time>2019-05-30T13:38:15Z</time>
      </trkpt>
      <trkpt lat="51.213761961809" lon="4.478353281064">
        <ele>0</ele>
        <time>2019-05-30T13:38:23Z</time>
      </trkpt>
      <trkpt lat="51.213918284244" lon="4.478167957255">
        <ele>0</ele>
        <time>2019-05-30T13:38:31Z</time>
      </trkpt>
      <trkpt lat="51.214022890356" lon="4.477934353702">
        <ele>0</ele>
        <time>2019-05-30T13:38:38Z</time>
      </trkpt>
      <trkpt lat="51.214083156217" lon="4.477868220511">
        <ele>0</ele>
        <time>2019-05-30T13:38:41Z</time>
      </trkpt>
      <trkpt lat="51.214261774506" lon="4.477942819421">
        <ele>0</ele>
        <time>2019-05-30T13:38:48Z</time>
      </trkpt>
      <trkpt lat="51.214397980381" lon="4.477780126742">
        <ele>0</ele>
        <time>2019-05-30T13:38:56Z</time>
      </trkpt>
      <trkpt lat="51.214377025631" lon="4.477498075807">
        <ele>0</ele>
        <time>2019-05-30T13:39:03Z</time>
      </trkpt>
      <trkpt lat="51.214326650412" lon="4.477189789525">
        <ele>0.6</ele>
        <time>2019-05-30T13:39:11Z</time>
      </trkpt>
      <trkpt lat="51.214291111156" lon="4.476902541812">
        <ele>0</ele>
        <time>2019-05-30T13:39:18Z</time>
      </trkpt>
      <trkpt lat="51.214270994596" lon="4.476599871403">
        <ele>0</ele>
        <time>2019-05-30T13:39:27Z</time>
      </trkpt>
      <trkpt lat="51.214324219661" lon="4.476306169627">
        <ele>0</ele>
        <time>2019-05-30T13:39:36Z</time>
      </trkpt>
      <trkpt lat="51.214500071923" lon="4.476183374792">
        <ele>0</ele>
        <time>2019-05-30T13:39:44Z</time>
      </trkpt>
      <trkpt lat="51.214677013832" lon="4.476124114759">
        <ele>0</ele>
        <time>2019-05-30T13:39:53Z</time>
      </trkpt>
      <trkpt lat="51.214806598006" lon="4.47589017593">
        <ele>0</ele>
        <time>2019-05-30T13:40:01Z</time>
      </trkpt>
      <trkpt lat="51.214866193315" lon="4.475825719119">
        <ele>0</ele>
        <time>2019-05-30T13:40:05Z</time>
      </trkpt>
      <trkpt lat="51.214896451974" lon="4.475806943663">
        <ele>0</ele>
        <time>2019-05-30T13:40:07Z</time>
      </trkpt>
      <trkpt lat="51.215044392509" lon="4.475666965933">
        <ele>0</ele>
        <time>2019-05-30T13:40:14Z</time>
      </trkpt>
      <trkpt lat="51.215131312812" lon="4.475614998153">
        <ele>0</ele>
        <time>2019-05-30T13:40:31Z</time>
      </trkpt>
      <trkpt lat="51.215319905562" lon="4.475525228004">
        <ele>0</ele>
        <time>2019-05-30T13:40:41Z</time>
      </trkpt>
      <trkpt lat="51.215636238468" lon="4.475353818149">
        <ele>0</ele>
        <time>2019-05-30T13:40:56Z</time>
      </trkpt>
      <trkpt lat="51.215768672488" lon="4.475572418101">
        <ele>0</ele>
        <time>2019-05-30T13:41:03Z</time>
      </trkpt>
      <trkpt lat="51.215921306887" lon="4.475731338925">
        <ele>0</ele>
        <time>2019-05-30T13:41:10Z</time>
      </trkpt>
      <trkpt lat="51.215982913852" lon="4.476024705425">
        <ele>2.2</ele>
        <time>2019-05-30T13:41:18Z</time>
      </trkpt>
      <trkpt lat="51.215938908877" lon="4.476313210423">
        <ele>4.8</ele>
        <time>2019-05-30T13:41:25Z</time>
      </trkpt>
      <trkpt lat="51.215869842021" lon="4.4765800063">
        <ele>3.8</ele>
        <time>2019-05-30T13:41:32Z</time>
      </trkpt>
      <trkpt lat="51.215823573933" lon="4.47688343108">
        <ele>2.8</ele>
        <time>2019-05-30T13:41:40Z</time>
      </trkpt>
      <trkpt lat="51.215817371327" lon="4.477185514756">
        <ele>4.6</ele>
        <time>2019-05-30T13:41:48Z</time>
      </trkpt>
      <trkpt lat="51.215801864812" lon="4.477502518214">
        <ele>2.6</ele>
        <time>2019-05-30T13:41:56Z</time>
      </trkpt>
      <trkpt lat="51.215766157918" lon="4.47780879284">
        <ele>0</ele>
        <time>2019-05-30T13:42:04Z</time>
      </trkpt>
      <trkpt lat="51.215797087129" lon="4.478100902055">
        <ele>0</ele>
        <time>2019-05-30T13:42:11Z</time>
      </trkpt>
      <trkpt lat="51.215736737449" lon="4.478364764267">
        <ele>0</ele>
        <time>2019-05-30T13:42:18Z</time>
      </trkpt>
      <trkpt lat="51.215630035862" lon="4.478609012833">
        <ele>0</ele>
        <time>2019-05-30T13:42:25Z</time>
      </trkpt>
      <trkpt lat="51.215589467466" lon="4.478892656329">
        <ele>0</ele>
        <time>2019-05-30T13:42:32Z</time>
      </trkpt>
      <trkpt lat="51.215752746878" lon="4.479037914656">
        <ele>0</ele>
        <time>2019-05-30T13:42:41Z</time>
      </trkpt>
      <trkpt lat="51.215928347683" lon="4.479179317309">
        <ele>0</ele>
        <time>2019-05-30T13:42:49Z</time>
      </trkpt>
      <trkpt lat="51.216100260452" lon="4.479282163222">
        <ele>0</ele>
        <time>2019-05-30T13:42:57Z</time>
      </trkpt>
      <trkpt lat="51.216222971468" lon="4.479053085895">
        <ele>0</ele>
        <time>2019-05-30T13:43:05Z</time>
      </trkpt>
      <trkpt lat="51.216311484332" lon="4.478771370236">
        <ele>0</ele>
        <time>2019-05-30T13:43:13Z</time>
      </trkpt>
      <trkpt lat="51.216422879783" lon="4.478525361471">
        <ele>0</ele>
        <time>2019-05-30T13:43:21Z</time>
      </trkpt>
      <trkpt lat="51.216576268553" lon="4.478332326314">
        <ele>0.8</ele>
        <time>2019-05-30T13:43:29Z</time>
      </trkpt>
      <trkpt lat="51.216702835243" lon="4.478117414398">
        <ele>1.6</ele>
        <time>2019-05-30T13:43:37Z</time>
      </trkpt>
      <trkpt lat="51.216780619275" lon="4.47782388026">
        <ele>1.6</ele>
        <time>2019-05-30T13:43:45Z</time>
      </trkpt>
      <trkpt lat="51.216876759668" lon="4.477548534845">
        <ele>1.6</ele>
        <time>2019-05-30T13:43:54Z</time>
      </trkpt>
      <trkpt lat="51.217049678265" lon="4.477418866852">
        <ele>0.8</ele>
        <time>2019-05-30T13:44:04Z</time>
      </trkpt>
      <trkpt lat="51.217163755924" lon="4.477180820892">
        <ele>0</ele>
        <time>2019-05-30T13:44:13Z</time>
      </trkpt>
      <trkpt lat="51.217161408992" lon="4.476865158538">
        <ele>0</ele>
        <time>2019-05-30T13:44:22Z</time>
      </trkpt>
      <trkpt lat="51.21718253138" lon="4.476567349631">
        <ele>0</ele>
        <time>2019-05-30T13:44:30Z</time>
      </trkpt>
      <trkpt lat="51.21720180975" lon="4.476281778298">
        <ele>0</ele>
        <time>2019-05-30T13:44:38Z</time>
      </trkpt>
      <trkpt lat="51.217231481676" lon="4.47598070045">
        <ele>0</ele>
        <time>2019-05-30T13:44:46Z</time>
      </trkpt>
      <trkpt lat="51.217247574924" lon="4.475665960105">
        <ele>0</ele>
        <time>2019-05-30T13:44:54Z</time>
      </trkpt>
      <trkpt lat="51.217275905746" lon="4.47534619062">
        <ele>0</ele>
        <time>2019-05-30T13:45:02Z</time>
      </trkpt>
      <trkpt lat="51.217285796388" lon="4.475048297894">
        <ele>0</ele>
        <time>2019-05-30T13:45:09Z</time>
      </trkpt>
      <trkpt lat="51.217296860496" lon="4.474720984699">
        <ele>2.2</ele>
        <time>2019-05-30T13:45:17Z</time>
      </trkpt>
      <trkpt lat="51.217301386722" lon="4.47442753438">
        <ele>2.2</ele>
        <time>2019-05-30T13:45:24Z</time>
      </trkpt>
      <trkpt lat="51.217318150522" lon="4.474112207302">
        <ele>2.4</ele>
        <time>2019-05-30T13:45:32Z</time>
      </trkpt>
      <trkpt lat="51.217310606812" lon="4.473786151392">
        <ele>1.4</ele>
        <time>2019-05-30T13:45:40Z</time>
      </trkpt>
      <trkpt lat="51.217320665092" lon="4.473459508749">
        <ele>1.4</ele>
        <time>2019-05-30T13:45:48Z</time>
      </trkpt>
      <trkpt lat="51.21734178748" lon="4.473139990721">
        <ele>0</ele>
        <time>2019-05-30T13:45:55Z</time>
      </trkpt>
      <trkpt lat="51.217341871299" lon="4.472806642558">
        <ele>0</ele>
        <time>2019-05-30T13:46:03Z</time>
      </trkpt>
      <trkpt lat="51.217358048366" lon="4.47249885919">
        <ele>0</ele>
        <time>2019-05-30T13:46:10Z</time>
      </trkpt>
      <trkpt lat="51.217386295369" lon="4.472190908184">
        <ele>0</ele>
        <time>2019-05-30T13:46:18Z</time>
      </trkpt>
      <trkpt lat="51.217404148816" lon="4.471884046825">
        <ele>0</ele>
        <time>2019-05-30T13:46:26Z</time>
      </trkpt>
      <trkpt lat="51.217413201268" lon="4.471588249574">
        <ele>0</ele>
        <time>2019-05-30T13:46:33Z</time>
      </trkpt>
      <trkpt lat="51.217435748579" lon="4.471278119274">
        <ele>0</ele>
        <time>2019-05-30T13:46:41Z</time>
      </trkpt>
      <trkpt lat="51.217445052488" lon="4.470962373101">
        <ele>0</ele>
        <time>2019-05-30T13:46:48Z</time>
      </trkpt>
      <trkpt lat="51.217466342514" lon="4.470548558698">
        <ele>0</ele>
        <time>2019-05-30T13:46:58Z</time>
      </trkpt>
      <trkpt lat="51.217470533464" lon="4.470230381774">
        <ele>0</ele>
        <time>2019-05-30T13:47:05Z</time>
      </trkpt>
      <trkpt lat="51.217465085229" lon="4.469903906769">
        <ele>0</ele>
        <time>2019-05-30T13:47:14Z</time>
      </trkpt>
      <trkpt lat="51.217474556776" lon="4.469592770641">
        <ele>0</ele>
        <time>2019-05-30T13:47:24Z</time>
      </trkpt>
      <trkpt lat="51.217484195961" lon="4.469268139654">
        <ele>0</ele>
        <time>2019-05-30T13:47:32Z</time>
      </trkpt>
      <trkpt lat="51.217491907309" lon="4.468938730984">
        <ele>4.6</ele>
        <time>2019-05-30T13:47:39Z</time>
      </trkpt>
      <trkpt lat="51.217487464902" lon="4.468645196846">
        <ele>9.4</ele>
        <time>2019-05-30T13:47:46Z</time>
      </trkpt>
      <trkpt lat="51.217506407996" lon="4.468326936103">
        <ele>10.2</ele>
        <time>2019-05-30T13:47:54Z</time>
      </trkpt>
      <trkpt lat="51.217546222021" lon="4.468015883794">
        <ele>5.2</ele>
        <time>2019-05-30T13:48:02Z</time>
      </trkpt>
      <trkpt lat="51.217570361893" lon="4.467704580028">
        <ele>0.2</ele>
        <time>2019-05-30T13:48:12Z</time>
      </trkpt>
      <trkpt lat="51.217601877837" lon="4.46740853132">
        <ele>0</ele>
        <time>2019-05-30T13:48:20Z</time>
      </trkpt>
      <trkpt lat="51.217643116785" lon="4.467109884223">
        <ele>0</ele>
        <time>2019-05-30T13:48:28Z</time>
      </trkpt>
      <trkpt lat="51.217653761798" lon="4.466798580457">
        <ele>0</ele>
        <time>2019-05-30T13:48:36Z</time>
      </trkpt>
      <trkpt lat="51.217657030739" lon="4.466510662192">
        <ele>0</ele>
        <time>2019-05-30T13:48:43Z</time>
      </trkpt>
      <trkpt lat="51.217681505887" lon="4.466214278208">
        <ele>0</ele>
        <time>2019-05-30T13:48:51Z</time>
      </trkpt>
      <trkpt lat="51.217685864475" lon="4.46591068579">
        <ele>0</ele>
        <time>2019-05-30T13:48:59Z</time>
      </trkpt>
      <trkpt lat="51.217701622447" lon="4.465617654566">
        <ele>0</ele>
        <time>2019-05-30T13:49:07Z</time>
      </trkpt>
      <trkpt lat="51.217690809796" lon="4.465315319433">
        <ele>0</ele>
        <time>2019-05-30T13:49:16Z</time>
      </trkpt>
      <trkpt lat="51.217679410412" lon="4.465026060064">
        <ele>0</ele>
        <time>2019-05-30T13:49:24Z</time>
      </trkpt>
      <trkpt lat="51.217711932184" lon="4.464710481529">
        <ele>0</ele>
        <time>2019-05-30T13:49:32Z</time>
      </trkpt>
      <trkpt lat="51.217734814771" lon="4.464407392025">
        <ele>0</ele>
        <time>2019-05-30T13:49:42Z</time>
      </trkpt>
      <trkpt lat="51.217741268834" lon="4.464116540095">
        <ele>0</ele>
        <time>2019-05-30T13:49:51Z</time>
      </trkpt>
      <trkpt lat="51.217762642679" lon="4.463801715931">
        <ele>0</ele>
        <time>2019-05-30T13:50:00Z</time>
      </trkpt>
      <trkpt lat="51.217772868597" lon="4.463482365541">
        <ele>4.6</ele>
        <time>2019-05-30T13:50:09Z</time>
      </trkpt>
      <trkpt lat="51.217794745356" lon="4.463190004869">
        <ele>6.8</ele>
        <time>2019-05-30T13:50:16Z</time>
      </trkpt>
      <trkpt lat="51.217795415908" lon="4.462877108542">
        <ele>6.2</ele>
        <time>2019-05-30T13:50:23Z</time>
      </trkpt>
      <trkpt lat="51.217797511383" lon="4.462579634911">
        <ele>4.8</ele>
        <time>2019-05-30T13:50:30Z</time>
      </trkpt>
      <trkpt lat="51.217816622115" lon="4.462260535978">
        <ele>1.6</ele>
        <time>2019-05-30T13:50:38Z</time>
      </trkpt>
      <trkpt lat="51.217830955164" lon="4.461964906365">
        <ele>3.2</ele>
        <time>2019-05-30T13:50:45Z</time>
      </trkpt>
      <trkpt lat="51.21784134872" lon="4.461662655051">
        <ele>3.8</ele>
        <time>2019-05-30T13:50:53Z</time>
      </trkpt>
      <trkpt lat="51.21784637786" lon="4.461358978814">
        <ele>4.6</ele>
        <time>2019-05-30T13:51:01Z</time>
      </trkpt>
      <trkpt lat="51.217898848554" lon="4.461049686704">
        <ele>4.6</ele>
        <time>2019-05-30T13:51:10Z</time>
      </trkpt>
      <trkpt lat="51.217935896552" lon="4.460760762611">
        <ele>4.2</ele>
        <time>2019-05-30T13:51:20Z</time>
      </trkpt>
      <trkpt lat="51.217910750852" lon="4.46046496536">
        <ele>0</ele>
        <time>2019-05-30T13:51:30Z</time>
      </trkpt>
      <trkpt lat="51.217897591269" lon="4.460159361286">
        <ele>0</ele>
        <time>2019-05-30T13:51:38Z</time>
      </trkpt>
      <trkpt lat="51.217920054761" lon="4.459855936506">
        <ele>0</ele>
        <time>2019-05-30T13:51:46Z</time>
      </trkpt>
      <trkpt lat="51.217920809132" lon="4.459563994929">
        <ele>0</ele>
        <time>2019-05-30T13:51:54Z</time>
      </trkpt>
      <trkpt lat="51.217944278452" lon="4.459256211561">
        <ele>0</ele>
        <time>2019-05-30T13:52:01Z</time>
      </trkpt>
      <trkpt lat="51.217978308966" lon="4.458960079034">
        <ele>0</ele>
        <time>2019-05-30T13:52:08Z</time>
      </trkpt>
      <trkpt lat="51.217971854903" lon="4.458667131629">
        <ele>0</ele>
        <time>2019-05-30T13:52:16Z</time>
      </trkpt>
      <trkpt lat="51.218009070539" lon="4.458355157311">
        <ele>0</ele>
        <time>2019-05-30T13:52:25Z</time>
      </trkpt>
      <trkpt lat="51.218003789942" lon="4.458029520496">
        <ele>0</ele>
        <time>2019-05-30T13:52:33Z</time>
      </trkpt>
      <trkpt lat="51.218003203209" lon="4.45770899664">
        <ele>0</ele>
        <time>2019-05-30T13:52:40Z</time>
      </trkpt>
      <trkpt lat="51.21802491233" lon="4.457399872168">
        <ele>0</ele>
        <time>2019-05-30T13:52:48Z</time>
      </trkpt>
      <trkpt lat="51.218060200129" lon="4.457092843171">
        <ele>0</ele>
        <time>2019-05-30T13:52:55Z</time>
      </trkpt>
      <trkpt lat="51.218076125739" lon="4.456767038718">
        <ele>0</ele>
        <time>2019-05-30T13:53:02Z</time>
      </trkpt>
      <trkpt lat="51.218092721901" lon="4.456265717279">
        <ele>0</ele>
        <time>2019-05-30T13:53:14Z</time>
      </trkpt>
      <trkpt lat="51.218101690534" lon="4.455966986363">
        <ele>0</ele>
        <time>2019-05-30T13:53:21Z</time>
      </trkpt>
      <trkpt lat="51.218112167909" lon="4.455636571865">
        <ele>0</ele>
        <time>2019-05-30T13:53:29Z</time>
      </trkpt>
      <trkpt lat="51.218142594206" lon="4.455320909511">
        <ele>0</ele>
        <time>2019-05-30T13:53:36Z</time>
      </trkpt>
      <trkpt lat="51.218253235286" lon="4.455045731734">
        <ele>0</ele>
        <time>2019-05-30T13:53:44Z</time>
      </trkpt>
      <trkpt lat="51.218402265468" lon="4.454828472886">
        <ele>0</ele>
        <time>2019-05-30T13:53:51Z</time>
      </trkpt>
      <trkpt lat="51.218545009225" lon="4.454598725007">
        <ele>0</ele>
        <time>2019-05-30T13:53:58Z</time>
      </trkpt>
      <trkpt lat="51.218710384112" lon="4.454412060094">
        <ele>1.4</ele>
        <time>2019-05-30T13:54:05Z</time>
      </trkpt>
      <trkpt lat="51.218878357388" lon="4.454239057678">
        <ele>6.8</ele>
        <time>2019-05-30T13:54:13Z</time>
      </trkpt>
      <trkpt lat="51.219035937108" lon="4.454068402194">
        <ele>10.8</ele>
        <time>2019-05-30T13:54:21Z</time>
      </trkpt>
      <trkpt lat="51.219192846276" lon="4.45391786327">
        <ele>11.8</ele>
        <time>2019-05-30T13:54:29Z</time>
      </trkpt>
      <trkpt lat="51.219353024385" lon="4.453768162536">
        <ele>12</ele>
        <time>2019-05-30T13:54:37Z</time>
      </trkpt>
      <trkpt lat="51.219361490104" lon="4.453474628398">
        <ele>9.8</ele>
        <time>2019-05-30T13:54:45Z</time>
      </trkpt>
      <trkpt lat="51.219282029692" lon="4.453215292412">
        <ele>5.2</ele>
        <time>2019-05-30T13:54:52Z</time>
      </trkpt>
      <trkpt lat="51.219179016141" lon="4.452948245078">
        <ele>0.2</ele>
        <time>2019-05-30T13:55:00Z</time>
      </trkpt>
      <trkpt lat="51.219071476364" lon="4.452693100042">
        <ele>0</ele>
        <time>2019-05-30T13:55:08Z</time>
      </trkpt>
      <trkpt lat="51.218982628224" lon="4.452445498716">
        <ele>0</ele>
        <time>2019-05-30T13:55:16Z</time>
      </trkpt>
      <trkpt lat="51.219011294322" lon="4.452182558513">
        <ele>0</ele>
        <time>2019-05-30T13:55:25Z</time>
      </trkpt>
      <trkpt lat="51.219172226802" lon="4.452028080096">
        <ele>0</ele>
        <time>2019-05-30T13:55:33Z</time>
      </trkpt>
      <trkpt lat="51.219358640258" lon="4.45204283224">
        <ele>0</ele>
        <time>2019-05-30T13:55:41Z</time>
      </trkpt>
      <trkpt lat="51.219547316827" lon="4.452029672657">
        <ele>2.2</ele>
        <time>2019-05-30T13:55:49Z</time>
      </trkpt>
      <trkpt lat="51.219727946772" lon="4.452009723735">
        <ele>5.4</ele>
        <time>2019-05-30T13:55:56Z</time>
      </trkpt>
      <trkpt lat="51.219923245042" lon="4.451977537239">
        <ele>8.6</ele>
        <time>2019-05-30T13:56:04Z</time>
      </trkpt>
      <trkpt lat="51.220108233575" lon="4.451959432335">
        <ele>9.4</ele>
        <time>2019-05-30T13:56:11Z</time>
      </trkpt>
      <trkpt lat="51.220305375863" lon="4.451916936102">
        <ele>10.2</ele>
        <time>2019-05-30T13:56:18Z</time>
      </trkpt>
      <trkpt lat="51.220488185102" lon="4.451875529516">
        <ele>10</ele>
        <time>2019-05-30T13:56:25Z</time>
      </trkpt>
      <trkpt lat="51.220683064277" lon="4.451839319708">
        <ele>13.2</ele>
        <time>2019-05-30T13:56:33Z</time>
      </trkpt>
      <trkpt lat="51.220867717534" lon="4.451813754913">
        <ele>11</ele>
        <time>2019-05-30T13:56:40Z</time>
      </trkpt>
      <trkpt lat="51.221051029687" lon="4.451757680002">
        <ele>11.2</ele>
        <time>2019-05-30T13:56:47Z</time>
      </trkpt>
      <trkpt lat="51.221229228881" lon="4.45170587986">
        <ele>13.2</ele>
        <time>2019-05-30T13:56:54Z</time>
      </trkpt>
      <trkpt lat="51.221417486355" lon="4.451644440533">
        <ele>11.2</ele>
        <time>2019-05-30T13:57:01Z</time>
      </trkpt>
      <trkpt lat="51.221610186236" lon="4.451572020917">
        <ele>13.6</ele>
        <time>2019-05-30T13:57:08Z</time>
      </trkpt>
      <trkpt lat="51.221783691566" lon="4.451458027077">
        <ele>15.6</ele>
        <time>2019-05-30T13:57:15Z</time>
      </trkpt>
      <trkpt lat="51.221958621819" lon="4.451306817601">
        <ele>13</ele>
        <time>2019-05-30T13:57:23Z</time>
      </trkpt>
      <trkpt lat="51.221981923501" lon="4.45128846124">
        <ele>12.4</ele>
        <time>2019-05-30T13:57:24Z</time>
      </trkpt>
      <trkpt lat="51.222031041435" lon="4.451249653043">
        <ele>11.8</ele>
        <time>2019-05-30T13:57:26Z</time>
      </trkpt>
      <trkpt lat="51.22218820206" lon="4.451109507675">
        <ele>11</ele>
        <time>2019-05-30T13:57:33Z</time>
      </trkpt>
      <trkpt lat="51.222366820349" lon="4.451071621487">
        <ele>10.4</ele>
        <time>2019-05-30T13:57:40Z</time>
      </trkpt>
      <trkpt lat="51.222551641244" lon="4.451018144965">
        <ele>6</ele>
        <time>2019-05-30T13:57:48Z</time>
      </trkpt>
      <trkpt lat="51.22274224565" lon="4.451027365055">
        <ele>0.2</ele>
        <time>2019-05-30T13:57:55Z</time>
      </trkpt>
      <trkpt lat="51.222920193387" lon="4.451106406372">
        <ele>0</ele>
        <time>2019-05-30T13:58:01Z</time>
      </trkpt>
      <trkpt lat="51.223105684834" lon="4.451179245083">
        <ele>0</ele>
        <time>2019-05-30T13:58:07Z</time>
      </trkpt>
      <trkpt lat="51.22330131838" lon="4.451231631958">
        <ele>0.8</ele>
        <time>2019-05-30T13:58:14Z</time>
      </trkpt>
      <trkpt lat="51.223477841194" lon="4.451292819828">
        <ele>0</ele>
        <time>2019-05-30T13:58:22Z</time>
      </trkpt>
      <trkpt lat="51.223665344297" lon="4.451335064604">
        <ele>0</ele>
        <time>2019-05-30T13:58:30Z</time>
      </trkpt>
      <trkpt lat="51.223851087201" lon="4.451373872801">
        <ele>0</ele>
        <time>2019-05-30T13:58:37Z</time>
      </trkpt>
      <trkpt lat="51.224043032711" lon="4.451306482325">
        <ele>0</ele>
        <time>2019-05-30T13:58:45Z</time>
      </trkpt>
      <trkpt lat="51.22420069625" lon="4.451125181828">
        <ele>0</ele>
        <time>2019-05-30T13:58:53Z</time>
      </trkpt>
      <trkpt lat="51.224332208261" lon="4.450937008173">
        <ele>0</ele>
        <time>2019-05-30T13:59:00Z</time>
      </trkpt>
    </trkseg>
  </trk>
</gpx>